AFR068 LFPG-KPHX
Flight info
| Callsign | AFR068 |
|---|---|
| Flight time | N/A |
| Altitude | 30000 |
| Route | ATREX DCT VESAN DCT RATUK DCT SOVAT/N0487F360 L613 SANDY L722 ICTAM T421 DIDZA DCT CESQA DCT BIBPE DCT OKTAD DCT AZCAL DCT MEDOG DCT KRAGY DCT PEMOB DCT BAKUR DCT SUTEX DCT PIKIL/M085F360 DCT 57N020W 58N030W 58N040W 58N050W DCT AVUTI/N0500F360 DCT LOMTA/N0496F380 DCT 56N070W/N0497F400 53N080W 4930N09000W DCT KP12E DCT KP06C DCT BFF DCT KD57U DCT HBU J10 RSK DCT GUP EAGUL6 |
| Aircraft | A359/H-SDE2E3GHIJ1J3J4J5LM1ORWXY/LB1D1 |
Departure
| Time | 2026-05-08 09:19 |
|---|---|
| Airport | Charles de Gaulle International Airport (LFPG) |
Arrival
| Time | N/A |
|---|---|
| Airport | Phoenix Sky Harbor International Airport (KPHX) |
| Time | Latitude | Longitude | Altitude | Speed | Heading |
|---|---|---|---|---|---|
| 2026-05-08 08:33 | 49.00120 | 2.57526 | 361 ft | 0 kts | 359° |
| 2026-05-08 09:08 | 49.00101 | 2.57531 | 360 ft | 4 kts | 335° |
| 2026-05-08 09:08 | 49.00081 | 2.57537 | 360 ft | 4 kts | 351° |
| 2026-05-08 09:09 | 49.00059 | 2.57551 | 365 ft | 4 kts | 302° |
| 2026-05-08 09:09 | 49.00055 | 2.57584 | 364 ft | 4 kts | 265° |
| 2026-05-08 09:09 | 49.00057 | 2.57621 | 365 ft | 2 kts | 265° |
| 2026-05-08 09:09 | 49.00057 | 2.57623 | 365 ft | 0 kts | 265° |
| 2026-05-08 09:12 | 49.00057 | 2.57619 | 365 ft | 1 kts | 265° |
| 2026-05-08 09:13 | 49.00054 | 2.57575 | 364 ft | 7 kts | 264° |
| 2026-05-08 09:13 | 49.00049 | 2.57497 | 366 ft | 8 kts | 265° |
| 2026-05-08 09:13 | 49.00044 | 2.57405 | 364 ft | 9 kts | 265° |
| 2026-05-08 09:13 | 49.00024 | 2.57307 | 362 ft | 10 kts | 234° |
| 2026-05-08 09:14 | 48.99967 | 2.57256 | 368 ft | 10 kts | 226° |
| 2026-05-08 09:14 | 48.99948 | 2.57157 | 366 ft | 10 kts | 261° |
| 2026-05-08 09:14 | 48.99942 | 2.57042 | 366 ft | 12 kts | 265° |
| 2026-05-08 09:14 | 48.99935 | 2.56914 | 360 ft | 12 kts | 266° |
| 2026-05-08 09:15 | 48.99929 | 2.56785 | 368 ft | 13 kts | 265° |
| 2026-05-08 09:15 | 48.99921 | 2.56644 | 363 ft | 14 kts | 265° |
| 2026-05-08 09:15 | 48.99913 | 2.56494 | 366 ft | 15 kts | 265° |
| 2026-05-08 09:15 | 48.99906 | 2.56330 | 362 ft | 16 kts | 266° |
| 2026-05-08 09:16 | 48.99900 | 2.56217 | 364 ft | 16 kts | 265° |
| 2026-05-08 09:16 | 48.99890 | 2.55998 | 360 ft | 11 kts | 271° |
| 2026-05-08 09:16 | 48.99899 | 2.55882 | 365 ft | 11 kts | 271° |
| 2026-05-08 09:16 | 48.99868 | 2.55800 | 366 ft | 7 kts | 199° |
| 2026-05-08 09:17 | 48.99834 | 2.55800 | 367 ft | 8 kts | 178° |
| 2026-05-08 09:17 | 48.99756 | 2.55807 | 365 ft | 9 kts | 176° |
| 2026-05-08 09:17 | 48.99687 | 2.55815 | 365 ft | 10 kts | 176° |
| 2026-05-08 09:17 | 48.99632 | 2.55821 | 364 ft | 6 kts | 174° |
| 2026-05-08 09:18 | 48.99606 | 2.55855 | 365 ft | 5 kts | 105° |
| 2026-05-08 09:18 | 48.99606 | 2.55889 | 364 ft | 5 kts | 87° |
| 2026-05-08 09:18 | 48.99609 | 2.55971 | 362 ft | 14 kts | 86° |
| 2026-05-08 09:18 | 48.99631 | 2.56401 | 369 ft | 70 kts | 85° |
| 2026-05-08 09:19 | 48.99684 | 2.57407 | 358 ft | 122 kts | 85° |
| 2026-05-08 09:19 | 48.99766 | 2.58931 | 362 ft | 166 kts | 85° |
| 2026-05-08 09:19 | 48.99859 | 2.60691 | 987 ft | 157 kts | 87° |
| 2026-05-08 09:19 | 48.99901 | 2.62351 | 1602 ft | 157 kts | 89° |
| 2026-05-08 09:20 | 48.99928 | 2.64004 | 2176 ft | 154 kts | 87° |
| 2026-05-08 09:20 | 48.99972 | 2.65633 | 2631 ft | 160 kts | 86° |
| 2026-05-08 09:20 | 49.00057 | 2.67379 | 2976 ft | 169 kts | 84° |
| 2026-05-08 09:20 | 49.00195 | 2.69144 | 3486 ft | 167 kts | 83° |
| 2026-05-08 09:21 | 49.00327 | 2.70971 | 3748 ft | 181 kts | 84° |
| 2026-05-08 09:21 | 49.00453 | 2.72950 | 4021 ft | 195 kts | 84° |
| 2026-05-08 09:22 | 49.06572 | 2.79445 | 5957 ft | 268 kts | 338° |
| 2026-05-08 09:23 | 49.08300 | 2.78297 | 6478 ft | 270 kts | 335° |
| 2026-05-08 09:23 | 49.09949 | 2.77159 | 7461 ft | 255 kts | 336° |
| 2026-05-08 09:23 | 49.11619 | 2.76124 | 7928 ft | 263 kts | 338° |
| 2026-05-08 09:23 | 49.13367 | 2.75157 | 8315 ft | 272 kts | 340° |
| 2026-05-08 09:24 | 49.15186 | 2.74192 | 8768 ft | 279 kts | 340° |
| 2026-05-08 09:24 | 49.17016 | 2.73207 | 9406 ft | 279 kts | 338° |
| 2026-05-08 09:24 | 49.18839 | 2.72177 | 10057 ft | 279 kts | 338° |
| 2026-05-08 09:24 | 49.20681 | 2.71079 | 10382 ft | 291 kts | 336° |
| 2026-05-08 09:25 | 49.22610 | 2.69890 | 10619 ft | 306 kts | 336° |
| 2026-05-08 09:25 | 49.24624 | 2.68661 | 10866 ft | 318 kts | 337° |
| 2026-05-08 09:25 | 49.26724 | 2.67400 | 11150 ft | 330 kts | 337° |
| 2026-05-08 09:25 | 49.28900 | 2.66117 | 11457 ft | 340 kts | 339° |
| 2026-05-08 09:26 | 49.31118 | 2.64830 | 11762 ft | 350 kts | 338° |
| 2026-05-08 09:26 | 49.33455 | 2.63489 | 12073 ft | 359 kts | 339° |
| 2026-05-08 09:26 | 49.35802 | 2.62184 | 12347 ft | 368 kts | 339° |
| 2026-05-08 09:26 | 49.38235 | 2.60817 | 12608 ft | 376 kts | 338° |
| 2026-05-08 09:27 | 49.40691 | 2.59366 | 13018 ft | 380 kts | 337° |
| 2026-05-08 09:27 | 49.43166 | 2.57879 | 13511 ft | 382 kts | 337° |
| 2026-05-08 09:27 | 49.45654 | 2.56394 | 13925 ft | 386 kts | 337° |
| 2026-05-08 09:27 | 49.48165 | 2.54902 | 14309 ft | 389 kts | 337° |
| 2026-05-08 09:28 | 49.50696 | 2.53402 | 14727 ft | 390 kts | 338° |
| 2026-05-08 09:28 | 49.53232 | 2.51901 | 15170 ft | 392 kts | 337° |
| 2026-05-08 09:28 | 49.55789 | 2.50387 | 15578 ft | 394 kts | 337° |
| 2026-05-08 09:28 | 49.58355 | 2.48868 | 15969 ft | 397 kts | 337° |
| 2026-05-08 09:29 | 49.60940 | 2.47336 | 16386 ft | 399 kts | 337° |
| 2026-05-08 09:29 | 49.63547 | 2.45789 | 16780 ft | 402 kts | 337° |
| 2026-05-08 09:29 | 49.66167 | 2.44233 | 17186 ft | 404 kts | 337° |
| 2026-05-08 09:29 | 49.68800 | 2.42668 | 17588 ft | 407 kts | 337° |
| 2026-05-08 09:30 | 49.71447 | 2.41092 | 17976 ft | 409 kts | 337° |
| 2026-05-08 09:30 | 49.74118 | 2.39500 | 18346 ft | 413 kts | 337° |
| 2026-05-08 09:30 | 49.76804 | 2.37898 | 18676 ft | 415 kts | 337° |
| 2026-05-08 09:30 | 49.79504 | 2.36287 | 19033 ft | 417 kts | 337° |
| 2026-05-08 09:31 | 49.82226 | 2.34697 | 19380 ft | 418 kts | 338° |
| 2026-05-08 09:31 | 49.84955 | 2.33125 | 19739 ft | 420 kts | 338° |
| 2026-05-08 09:31 | 49.87708 | 2.31545 | 20081 ft | 422 kts | 338° |
| 2026-05-08 09:31 | 49.90464 | 2.29963 | 20429 ft | 424 kts | 338° |
| 2026-05-08 09:32 | 49.93201 | 2.28387 | 20778 ft | 425 kts | 338° |
| 2026-05-08 09:32 | 49.95979 | 2.26781 | 21144 ft | 427 kts | 338° |
| 2026-05-08 09:32 | 49.98776 | 2.25160 | 21495 ft | 429 kts | 338° |
| 2026-05-08 09:32 | 50.01578 | 2.23531 | 21850 ft | 431 kts | 338° |
| 2026-05-08 09:33 | 50.04393 | 2.21893 | 22194 ft | 433 kts | 338° |
| 2026-05-08 09:33 | 50.07213 | 2.20249 | 22541 ft | 435 kts | 338° |
| 2026-05-08 09:33 | 50.10054 | 2.18591 | 22894 ft | 437 kts | 338° |
| 2026-05-08 09:33 | 50.12908 | 2.16923 | 23226 ft | 438 kts | 338° |
| 2026-05-08 09:34 | 50.15766 | 2.15251 | 23572 ft | 440 kts | 338° |
| 2026-05-08 09:34 | 50.18646 | 2.13564 | 23883 ft | 442 kts | 338° |
| 2026-05-08 09:34 | 50.21520 | 2.11878 | 24185 ft | 443 kts | 338° |
| 2026-05-08 09:34 | 50.24415 | 2.10178 | 24461 ft | 445 kts | 338° |
| 2026-05-08 09:35 | 50.27325 | 2.08467 | 24736 ft | 447 kts | 338° |
| 2026-05-08 09:35 | 50.30204 | 2.06771 | 25024 ft | 449 kts | 338° |
| 2026-05-08 09:35 | 50.33176 | 2.05019 | 25304 ft | 451 kts | 338° |
| 2026-05-08 09:35 | 50.36007 | 2.03064 | 25565 ft | 451 kts | 330° |
| 2026-05-08 09:36 | 50.38647 | 2.00404 | 25838 ft | 451 kts | 321° |
| 2026-05-08 09:36 | 50.41124 | 1.97365 | 26121 ft | 452 kts | 319° |
| 2026-05-08 09:36 | 50.43541 | 1.94189 | 26427 ft | 454 kts | 317° |
| 2026-05-08 09:36 | 50.45926 | 1.90939 | 26717 ft | 456 kts | 317° |
| 2026-05-08 09:37 | 50.48313 | 1.87637 | 26999 ft | 458 kts | 317° |
| 2026-05-08 09:37 | 50.50704 | 1.84318 | 27298 ft | 460 kts | 317° |
| 2026-05-08 09:37 | 50.53113 | 1.80983 | 27528 ft | 464 kts | 317° |
| 2026-05-08 09:37 | 50.55543 | 1.77628 | 27844 ft | 466 kts | 317° |
| 2026-05-08 09:38 | 50.57988 | 1.74260 | 28131 ft | 468 kts | 317° |
| 2026-05-08 09:38 | 50.60446 | 1.70878 | 28419 ft | 470 kts | 317° |
| 2026-05-08 09:38 | 50.62914 | 1.67482 | 28706 ft | 472 kts | 317° |
| 2026-05-08 09:38 | 50.65387 | 1.64076 | 28997 ft | 474 kts | 317° |
| 2026-05-08 09:39 | 50.67879 | 1.60643 | 29247 ft | 476 kts | 317° |
| 2026-05-08 09:39 | 50.70375 | 1.57194 | 29526 ft | 478 kts | 317° |
| 2026-05-08 09:39 | 50.72882 | 1.53718 | 29799 ft | 480 kts | 317° |
| 2026-05-08 09:39 | 50.75390 | 1.50223 | 30033 ft | 482 kts | 316° |
| 2026-05-08 09:40 | 50.77629 | 1.46617 | 30252 ft | 482 kts | 308° |
| 2026-05-08 09:40 | 50.79663 | 1.42235 | 30507 ft | 481 kts | 300° |
| 2026-05-08 09:40 | 50.81327 | 1.37663 | 30759 ft | 480 kts | 296° |
| 2026-05-08 09:40 | 50.82829 | 1.33021 | 31007 ft | 481 kts | 294° |
| 2026-05-08 09:41 | 50.84271 | 1.28253 | 31221 ft | 481 kts | 293° |
| 2026-05-08 09:41 | 50.85683 | 1.23453 | 31484 ft | 481 kts | 293° |
| 2026-05-08 09:41 | 50.87086 | 1.18661 | 31846 ft | 479 kts | 293° |
| 2026-05-08 09:41 | 50.88493 | 1.13877 | 32178 ft | 477 kts | 294° |
| 2026-05-08 09:42 | 50.89899 | 1.09131 | 32499 ft | 476 kts | 294° |
| 2026-05-08 09:42 | 50.91310 | 1.04394 | 32805 ft | 474 kts | 294° |
| 2026-05-08 09:42 | 50.92718 | 0.99681 | 33115 ft | 473 kts | 294° |
| 2026-05-08 09:42 | 50.94125 | 0.94973 | 33405 ft | 472 kts | 294° |
| 2026-05-08 09:43 | 50.95523 | 0.90285 | 33879 ft | 466 kts | 295° |
| 2026-05-08 09:43 | 50.96896 | 0.85677 | 34376 ft | 460 kts | 295° |
| 2026-05-08 09:43 | 50.98260 | 0.81086 | 34538 ft | 461 kts | 295° |
| 2026-05-08 09:44 | 51.00998 | 0.71844 | 34702 ft | 464 kts | 295° |
| 2026-05-08 09:44 | 51.02369 | 0.67201 | 34893 ft | 464 kts | 294° |
| 2026-05-08 09:44 | 51.03738 | 0.62556 | 35036 ft | 464 kts | 294° |
| 2026-05-08 09:44 | 51.05099 | 0.57916 | 35174 ft | 464 kts | 294° |
| 2026-05-08 09:45 | 51.06465 | 0.53246 | 35314 ft | 465 kts | 294° |
| 2026-05-08 09:45 | 51.07828 | 0.48585 | 35459 ft | 465 kts | 294° |
| 2026-05-08 09:45 | 51.09188 | 0.43924 | 35673 ft | 463 kts | 294° |
| 2026-05-08 09:45 | 51.10541 | 0.39288 | 35907 ft | 462 kts | 294° |
| 2026-05-08 09:46 | 51.11893 | 0.34646 | 35964 ft | 464 kts | 294° |
| 2026-05-08 09:46 | 51.14624 | 0.25243 | 35977 ft | 470 kts | 294° |
| 2026-05-08 09:47 | 51.17359 | 0.15791 | 36003 ft | 469 kts | 294° |
| 2026-05-08 09:47 | 51.20082 | 0.06343 | 36032 ft | 469 kts | 294° |
| 2026-05-08 09:48 | 51.22790 | -0.03094 | 36096 ft | 468 kts | 294° |
| 2026-05-08 09:48 | 51.25477 | -0.12495 | 36098 ft | 463 kts | 294° |
| 2026-05-08 09:49 | 51.28143 | -0.21853 | 36104 ft | 463 kts | 294° |
| 2026-05-08 09:49 | 51.30800 | -0.31220 | 36095 ft | 463 kts | 294° |
| 2026-05-08 09:50 | 51.33429 | -0.40526 | 36103 ft | 463 kts | 294° |
| 2026-05-08 09:50 | 51.36071 | -0.49914 | 36100 ft | 463 kts | 294° |
| 2026-05-08 09:51 | 51.38708 | -0.59322 | 36102 ft | 463 kts | 294° |
| 2026-05-08 09:51 | 51.41337 | -0.68741 | 36099 ft | 463 kts | 294° |
| 2026-05-08 09:52 | 51.43941 | -0.78107 | 36091 ft | 463 kts | 294° |
| 2026-05-08 09:52 | 51.46555 | -0.87542 | 36086 ft | 463 kts | 294° |
| 2026-05-08 09:53 | 51.49165 | -0.96975 | 36067 ft | 463 kts | 294° |
| 2026-05-08 09:53 | 51.51756 | -1.06390 | 36073 ft | 460 kts | 294° |
| 2026-05-08 09:54 | 51.54329 | -1.15789 | 36073 ft | 459 kts | 294° |
| 2026-05-08 09:54 | 51.56891 | -1.25191 | 36083 ft | 459 kts | 294° |
| 2026-05-08 09:55 | 51.59446 | -1.34606 | 36074 ft | 459 kts | 294° |
| 2026-05-08 09:55 | 51.61966 | -1.44048 | 36076 ft | 459 kts | 292° |
| 2026-05-08 09:56 | 51.64236 | -1.53560 | 36076 ft | 457 kts | 290° |
| 2026-05-08 09:56 | 51.66300 | -1.63228 | 36074 ft | 456 kts | 287° |
| 2026-05-08 09:57 | 51.68775 | -1.78028 | 36073 ft | 456 kts | 285° |
| 2026-05-08 09:57 | 51.70341 | -1.87942 | 36074 ft | 456 kts | 285° |
| 2026-05-08 09:58 | 51.71908 | -1.97867 | 36065 ft | 455 kts | 284° |
| 2026-05-08 09:58 | 51.73465 | -2.07729 | 36072 ft | 453 kts | 284° |
| 2026-05-08 09:59 | 51.75013 | -2.17573 | 36069 ft | 453 kts | 284° |
| 2026-05-08 09:59 | 51.76553 | -2.27422 | 36075 ft | 453 kts | 284° |
| 2026-05-08 10:00 | 51.78085 | -2.37284 | 36075 ft | 452 kts | 284° |
| 2026-05-08 10:00 | 51.79607 | -2.47135 | 36071 ft | 452 kts | 283° |
| 2026-05-08 10:01 | 51.81117 | -2.56977 | 36068 ft | 451 kts | 283° |
| 2026-05-08 10:01 | 51.82616 | -2.66807 | 36065 ft | 451 kts | 283° |
| 2026-05-08 10:02 | 51.84109 | -2.76659 | 36062 ft | 451 kts | 283° |
| 2026-05-08 10:02 | 51.85583 | -2.86444 | 36097 ft | 451 kts | 283° |
| 2026-05-08 10:03 | 51.87070 | -2.96365 | 36098 ft | 451 kts | 282° |
| 2026-05-08 10:03 | 51.88528 | -3.06157 | 36090 ft | 451 kts | 282° |
| 2026-05-08 10:04 | 51.89985 | -3.16009 | 36084 ft | 450 kts | 282° |
| 2026-05-08 10:04 | 51.91433 | -3.25878 | 36076 ft | 451 kts | 282° |
| 2026-05-08 10:05 | 51.92633 | -3.34094 | 36059 ft | 450 kts | 282° |
| 2026-05-08 10:05 | 51.94066 | -3.43959 | 36056 ft | 450 kts | 282° |
| 2026-05-08 10:06 | 51.95492 | -3.53842 | 36050 ft | 450 kts | 282° |
| 2026-05-08 10:06 | 51.96907 | -3.63718 | 36049 ft | 450 kts | 282° |
| 2026-05-08 10:07 | 51.98315 | -3.73605 | 36047 ft | 450 kts | 282° |
| 2026-05-08 10:07 | 51.99715 | -3.83491 | 36046 ft | 450 kts | 281° |
| 2026-05-08 10:08 | 52.01106 | -3.93378 | 36048 ft | 449 kts | 281° |
| 2026-05-08 10:08 | 52.02488 | -4.03273 | 36047 ft | 449 kts | 281° |
| 2026-05-08 10:09 | 52.03859 | -4.13160 | 36048 ft | 449 kts | 281° |
| 2026-05-08 10:09 | 52.05224 | -4.23067 | 36046 ft | 449 kts | 281° |
| 2026-05-08 10:10 | 52.06579 | -4.32961 | 36050 ft | 449 kts | 281° |
| 2026-05-08 10:10 | 52.07927 | -4.42876 | 36060 ft | 449 kts | 280° |
| 2026-05-08 10:11 | 52.09265 | -4.52775 | 36047 ft | 449 kts | 280° |
| 2026-05-08 10:11 | 52.10591 | -4.62659 | 36058 ft | 449 kts | 280° |
| 2026-05-08 10:12 | 52.11913 | -4.72584 | 36060 ft | 449 kts | 280° |
| 2026-05-08 10:12 | 52.13227 | -4.82517 | 36045 ft | 449 kts | 280° |
| 2026-05-08 10:13 | 52.14525 | -4.92396 | 36049 ft | 449 kts | 280° |
| 2026-05-08 10:13 | 52.15824 | -5.02344 | 36055 ft | 450 kts | 279° |
| 2026-05-08 10:14 | 52.17116 | -5.12323 | 36049 ft | 450 kts | 279° |
| 2026-05-08 10:14 | 52.18398 | -5.22284 | 36060 ft | 449 kts | 279° |
| 2026-05-08 10:15 | 52.19669 | -5.32238 | 36060 ft | 448 kts | 279° |
| 2026-05-08 10:15 | 52.20931 | -5.42190 | 36056 ft | 448 kts | 279° |
| 2026-05-08 10:16 | 52.22185 | -5.52150 | 36061 ft | 448 kts | 279° |
| 2026-05-08 10:16 | 52.23508 | -5.62071 | 36058 ft | 450 kts | 283° |
| 2026-05-08 10:17 | 52.26007 | -5.71470 | 36058 ft | 456 kts | 297° |
| 2026-05-08 10:17 | 52.29655 | -5.80016 | 36060 ft | 460 kts | 303° |
| 2026-05-08 10:18 | 52.33642 | -5.88218 | 36055 ft | 461 kts | 304° |
| 2026-05-08 10:18 | 52.37637 | -5.96432 | 36077 ft | 461 kts | 303° |
| 2026-05-08 10:19 | 52.41588 | -6.04730 | 36054 ft | 462 kts | 303° |
| 2026-05-08 10:20 | 52.47476 | -6.17267 | 36056 ft | 463 kts | 303° |
| 2026-05-08 10:20 | 52.51393 | -6.25649 | 36053 ft | 463 kts | 303° |
| 2026-05-08 10:21 | 52.55282 | -6.33991 | 36053 ft | 463 kts | 303° |
| 2026-05-08 10:21 | 52.59214 | -6.42453 | 36078 ft | 462 kts | 302° |
| 2026-05-08 10:22 | 52.63080 | -6.50797 | 36049 ft | 461 kts | 302° |
| 2026-05-08 10:22 | 52.66971 | -6.59226 | 36052 ft | 462 kts | 302° |
| 2026-05-08 10:23 | 52.70858 | -6.67672 | 36053 ft | 463 kts | 302° |
| 2026-05-08 10:23 | 52.74740 | -6.76138 | 36051 ft | 463 kts | 302° |
| 2026-05-08 10:24 | 52.78618 | -6.84622 | 36050 ft | 462 kts | 302° |
| 2026-05-08 10:24 | 52.82484 | -6.93105 | 36045 ft | 462 kts | 302° |
| 2026-05-08 10:25 | 52.86361 | -7.01577 | 36044 ft | 461 kts | 302° |
| 2026-05-08 10:25 | 52.90239 | -7.10024 | 36055 ft | 461 kts | 302° |
| 2026-05-08 10:26 | 52.94120 | -7.18509 | 36048 ft | 462 kts | 302° |
| 2026-05-08 10:26 | 52.97996 | -7.27023 | 36048 ft | 463 kts | 301° |
| 2026-05-08 10:27 | 53.01862 | -7.35550 | 36051 ft | 462 kts | 301° |
| 2026-05-08 10:27 | 53.05723 | -7.44091 | 36050 ft | 462 kts | 301° |
| 2026-05-08 10:28 | 53.09576 | -7.52646 | 36050 ft | 461 kts | 301° |
| 2026-05-08 10:28 | 53.13397 | -7.61157 | 36053 ft | 461 kts | 301° |
| 2026-05-08 10:29 | 53.17232 | -7.69730 | 36055 ft | 462 kts | 301° |
| 2026-05-08 10:29 | 53.21072 | -7.78343 | 36053 ft | 463 kts | 301° |
| 2026-05-08 10:30 | 53.24908 | -7.86974 | 36055 ft | 463 kts | 301° |
| 2026-05-08 10:30 | 53.28741 | -7.95630 | 36057 ft | 463 kts | 301° |
| 2026-05-08 10:31 | 53.32565 | -8.04293 | 36054 ft | 463 kts | 301° |
| 2026-05-08 10:31 | 53.36381 | -8.12968 | 36054 ft | 463 kts | 301° |
| 2026-05-08 10:32 | 53.40193 | -8.21665 | 36056 ft | 463 kts | 301° |
| 2026-05-08 10:32 | 53.44001 | -8.30383 | 36058 ft | 464 kts | 300° |
| 2026-05-08 10:33 | 53.47805 | -8.39124 | 36059 ft | 464 kts | 300° |
| 2026-05-08 10:33 | 53.51610 | -8.47893 | 36059 ft | 464 kts | 300° |
| 2026-05-08 10:34 | 53.55401 | -8.56662 | 36064 ft | 464 kts | 300° |
| 2026-05-08 10:34 | 53.59170 | -8.65412 | 36065 ft | 464 kts | 300° |
| 2026-05-08 10:35 | 53.62934 | -8.74181 | 36068 ft | 464 kts | 300° |
| 2026-05-08 10:35 | 53.66709 | -8.83007 | 36085 ft | 463 kts | 300° |
| 2026-05-08 10:35 | 53.68567 | -8.87359 | 36343 ft | 461 kts | 300° |
| 2026-05-08 10:36 | 53.70438 | -8.91747 | 36549 ft | 460 kts | 300° |
| 2026-05-08 10:36 | 53.72308 | -8.96145 | 36687 ft | 461 kts | 300° |
| 2026-05-08 10:36 | 53.74173 | -9.00542 | 36837 ft | 461 kts | 300° |
| 2026-05-08 10:36 | 53.76037 | -9.04943 | 36979 ft | 461 kts | 301° |
| 2026-05-08 10:37 | 53.77905 | -9.09360 | 37103 ft | 461 kts | 301° |
| 2026-05-08 10:37 | 53.79769 | -9.13776 | 37223 ft | 462 kts | 301° |
| 2026-05-08 10:37 | 53.81636 | -9.18208 | 37359 ft | 462 kts | 301° |
| 2026-05-08 10:37 | 53.83493 | -9.22620 | 37466 ft | 462 kts | 301° |
| 2026-05-08 10:38 | 53.85356 | -9.27056 | 37584 ft | 463 kts | 301° |
| 2026-05-08 10:38 | 53.87224 | -9.31513 | 37696 ft | 463 kts | 301° |
| 2026-05-08 10:38 | 53.89088 | -9.35966 | 37808 ft | 464 kts | 301° |
| 2026-05-08 10:39 | 53.92826 | -9.44922 | 37995 ft | 465 kts | 301° |
| 2026-05-08 10:39 | 53.94690 | -9.49402 | 38109 ft | 466 kts | 301° |
| 2026-05-08 10:39 | 53.96566 | -9.53917 | 38098 ft | 468 kts | 301° |
| 2026-05-08 10:40 | 54.00331 | -9.63006 | 38094 ft | 472 kts | 301° |
| 2026-05-08 10:40 | 54.04115 | -9.72170 | 38091 ft | 474 kts | 301° |
| 2026-05-08 10:41 | 54.07900 | -9.81366 | 38107 ft | 474 kts | 301° |
| 2026-05-08 10:41 | 54.11668 | -9.90557 | 38105 ft | 474 kts | 300° |
| 2026-05-08 10:42 | 54.15451 | -9.99825 | 38128 ft | 476 kts | 300° |
| 2026-05-08 10:42 | 54.19206 | -10.09053 | 38108 ft | 476 kts | 300° |
| 2026-05-08 10:43 | 54.22978 | -10.18356 | 38117 ft | 477 kts | 300° |
| 2026-05-08 10:43 | 54.26757 | -10.27717 | 38119 ft | 478 kts | 300° |
| 2026-05-08 10:44 | 54.30536 | -10.37108 | 38116 ft | 478 kts | 300° |
| 2026-05-08 10:44 | 54.34303 | -10.46506 | 38116 ft | 479 kts | 300° |
| 2026-05-08 10:45 | 54.38066 | -10.55930 | 38121 ft | 478 kts | 300° |
| 2026-05-08 10:45 | 54.41817 | -10.65358 | 38124 ft | 478 kts | 300° |
| 2026-05-08 10:46 | 54.45556 | -10.74794 | 38121 ft | 478 kts | 300° |
| 2026-05-08 10:46 | 54.49292 | -10.84258 | 38126 ft | 477 kts | 300° |
| 2026-05-08 10:47 | 54.53012 | -10.93718 | 38134 ft | 477 kts | 300° |
| 2026-05-08 10:47 | 54.56719 | -11.03181 | 38127 ft | 477 kts | 300° |
| 2026-05-08 10:48 | 54.60428 | -11.12684 | 38127 ft | 477 kts | 300° |
| 2026-05-08 10:48 | 54.64118 | -11.22175 | 38127 ft | 476 kts | 300° |
| 2026-05-08 10:49 | 54.67803 | -11.31690 | 38132 ft | 476 kts | 299° |
| 2026-05-08 10:49 | 54.71478 | -11.41217 | 38132 ft | 476 kts | 299° |
| 2026-05-08 10:50 | 54.75148 | -11.50766 | 38136 ft | 477 kts | 299° |
| 2026-05-08 10:50 | 54.78813 | -11.60339 | 38131 ft | 477 kts | 299° |
| 2026-05-08 10:51 | 54.81853 | -11.68310 | 38130 ft | 477 kts | 299° |
| 2026-05-08 10:51 | 54.85506 | -11.77920 | 38137 ft | 477 kts | 299° |
| 2026-05-08 10:52 | 54.89742 | -11.89108 | 38140 ft | 477 kts | 299° |
| 2026-05-08 10:52 | 54.92792 | -11.97198 | 38140 ft | 477 kts | 299° |
| 2026-05-08 10:53 | 54.96397 | -12.06795 | 38140 ft | 477 kts | 299° |
| 2026-05-08 10:53 | 55.00024 | -12.16489 | 38151 ft | 478 kts | 299° |
| 2026-05-08 10:54 | 55.03647 | -12.26208 | 38152 ft | 478 kts | 299° |
| 2026-05-08 10:54 | 55.07257 | -12.35929 | 38154 ft | 478 kts | 299° |
| 2026-05-08 10:55 | 55.10862 | -12.45676 | 38151 ft | 478 kts | 299° |
| 2026-05-08 10:55 | 55.14462 | -12.55447 | 38168 ft | 478 kts | 299° |
| 2026-05-08 10:56 | 55.18060 | -12.65256 | 38160 ft | 479 kts | 299° |
| 2026-05-08 10:56 | 55.21650 | -12.75077 | 38160 ft | 479 kts | 299° |
| 2026-05-08 10:57 | 55.25231 | -12.84917 | 38152 ft | 479 kts | 299° |
| 2026-05-08 10:57 | 55.30594 | -12.99725 | 38156 ft | 479 kts | 299° |
| 2026-05-08 10:58 | 55.34162 | -13.09623 | 38174 ft | 479 kts | 299° |
| 2026-05-08 10:58 | 55.37718 | -13.19533 | 38178 ft | 479 kts | 299° |
| 2026-05-08 10:59 | 55.41266 | -13.29459 | 38157 ft | 479 kts | 299° |
| 2026-05-08 10:59 | 55.44786 | -13.39346 | 38177 ft | 479 kts | 299° |
| 2026-05-08 11:00 | 55.48317 | -13.49307 | 38182 ft | 479 kts | 299° |
| 2026-05-08 11:00 | 55.51841 | -13.59288 | 38181 ft | 480 kts | 298° |
| 2026-05-08 11:01 | 55.55360 | -13.69296 | 38185 ft | 480 kts | 299° |
| 2026-05-08 11:01 | 55.58878 | -13.79342 | 38185 ft | 481 kts | 299° |
| 2026-05-08 11:02 | 55.64147 | -13.94462 | 38183 ft | 481 kts | 299° |
| 2026-05-08 11:03 | 55.67644 | -14.04551 | 38186 ft | 481 kts | 299° |
| 2026-05-08 11:03 | 55.71139 | -14.14677 | 38190 ft | 481 kts | 298° |
| 2026-05-08 11:04 | 55.74624 | -14.24816 | 38186 ft | 482 kts | 299° |
| 2026-05-08 11:04 | 55.78113 | -14.35011 | 38193 ft | 483 kts | 299° |
| 2026-05-08 11:05 | 55.81594 | -14.45223 | 38192 ft | 483 kts | 299° |
| 2026-05-08 11:05 | 55.85070 | -14.55464 | 38193 ft | 483 kts | 299° |
| 2026-05-08 11:06 | 55.88536 | -14.65719 | 38198 ft | 483 kts | 299° |
| 2026-05-08 11:06 | 55.91972 | -14.75929 | 38201 ft | 483 kts | 298° |
| 2026-05-08 11:07 | 55.95423 | -14.86226 | 38216 ft | 483 kts | 299° |
| 2026-05-08 11:07 | 55.98861 | -14.96548 | 38207 ft | 484 kts | 298° |
| 2026-05-08 11:08 | 56.01688 | -15.07429 | 38210 ft | 482 kts | 291° |
| 2026-05-08 11:08 | 56.04210 | -15.18507 | 38220 ft | 482 kts | 290° |
| 2026-05-08 11:09 | 56.06680 | -15.29653 | 38221 ft | 481 kts | 290° |
| 2026-05-08 11:09 | 56.09138 | -15.40788 | 38221 ft | 481 kts | 290° |
| 2026-05-08 11:10 | 56.11596 | -15.51933 | 38224 ft | 481 kts | 290° |
| 2026-05-08 11:10 | 56.14050 | -15.63106 | 38227 ft | 482 kts | 290° |
| 2026-05-08 11:11 | 56.16502 | -15.74323 | 38235 ft | 482 kts | 290° |
| 2026-05-08 11:11 | 56.18934 | -15.85505 | 38235 ft | 480 kts | 290° |
| 2026-05-08 11:12 | 56.21351 | -15.96685 | 38238 ft | 480 kts | 290° |
| 2026-05-08 11:12 | 56.23752 | -16.07854 | 38240 ft | 479 kts | 290° |
| 2026-05-08 11:13 | 56.26147 | -16.19057 | 38243 ft | 481 kts | 290° |
| 2026-05-08 11:13 | 56.28535 | -16.30290 | 38248 ft | 481 kts | 290° |
| 2026-05-08 11:14 | 56.30918 | -16.41562 | 38257 ft | 484 kts | 291° |
| 2026-05-08 11:14 | 56.33297 | -16.52867 | 38252 ft | 480 kts | 291° |
| 2026-05-08 11:15 | 56.35640 | -16.64071 | 38253 ft | 479 kts | 291° |
| 2026-05-08 11:15 | 56.37975 | -16.75296 | 38260 ft | 479 kts | 290° |
| 2026-05-08 11:16 | 56.40309 | -16.86580 | 38260 ft | 481 kts | 290° |
| 2026-05-08 11:16 | 56.42636 | -16.97901 | 38257 ft | 482 kts | 291° |
| 2026-05-08 11:17 | 56.44965 | -17.09286 | 38273 ft | 483 kts | 291° |
| 2026-05-08 11:17 | 56.47279 | -17.20671 | 38272 ft | 483 kts | 291° |
| 2026-05-08 11:18 | 56.49587 | -17.32088 | 38269 ft | 482 kts | 291° |
| 2026-05-08 11:18 | 56.51880 | -17.43490 | 38274 ft | 483 kts | 291° |
| 2026-05-08 11:19 | 56.54166 | -17.54926 | 38274 ft | 483 kts | 291° |
| 2026-05-08 11:19 | 56.56449 | -17.66417 | 38270 ft | 485 kts | 291° |
| 2026-05-08 11:20 | 56.58728 | -17.77957 | 38283 ft | 485 kts | 291° |
| 2026-05-08 11:20 | 56.60980 | -17.89424 | 38284 ft | 485 kts | 291° |
| 2026-05-08 11:21 | 56.63235 | -18.00979 | 38284 ft | 485 kts | 291° |
| 2026-05-08 11:21 | 56.65481 | -18.12548 | 38284 ft | 487 kts | 291° |
| 2026-05-08 11:22 | 56.67723 | -18.24172 | 38286 ft | 487 kts | 291° |
| 2026-05-08 11:22 | 56.69952 | -18.35800 | 38295 ft | 487 kts | 291° |
| 2026-05-08 11:23 | 56.72171 | -18.47441 | 38291 ft | 487 kts | 291° |
| 2026-05-08 11:23 | 56.74377 | -18.59088 | 38293 ft | 487 kts | 290° |
| 2026-05-08 11:24 | 56.76574 | -18.70762 | 38294 ft | 487 kts | 290° |
| 2026-05-08 11:24 | 56.78762 | -18.82457 | 38305 ft | 487 kts | 291° |
| 2026-05-08 11:25 | 56.80935 | -18.94147 | 38302 ft | 486 kts | 291° |
| 2026-05-08 11:25 | 56.83099 | -19.05850 | 38280 ft | 486 kts | 291° |
| 2026-05-08 11:26 | 56.85249 | -19.17553 | 38301 ft | 486 kts | 291° |
| 2026-05-08 11:26 | 56.87385 | -19.29259 | 38311 ft | 486 kts | 291° |
| 2026-05-08 11:27 | 56.89513 | -19.40993 | 38312 ft | 486 kts | 291° |
| 2026-05-08 11:27 | 56.91614 | -19.52649 | 38312 ft | 486 kts | 290° |
| 2026-05-08 11:28 | 56.93721 | -19.64413 | 38317 ft | 486 kts | 291° |
| 2026-05-08 11:28 | 56.95810 | -19.76159 | 38317 ft | 485 kts | 290° |
| 2026-05-08 11:29 | 56.97887 | -19.87905 | 38325 ft | 484 kts | 291° |
| 2026-05-08 11:29 | 56.99952 | -19.99653 | 38330 ft | 483 kts | 291° |
| 2026-05-08 11:30 | 57.01817 | -20.11532 | 38313 ft | 485 kts | 287° |
| 2026-05-08 11:30 | 57.03439 | -20.23555 | 38334 ft | 485 kts | 287° |
| 2026-05-08 11:31 | 57.05063 | -20.35572 | 38333 ft | 485 kts | 287° |
| 2026-05-08 11:31 | 57.06720 | -20.47586 | 38327 ft | 485 kts | 287° |
| 2026-05-08 11:32 | 57.08385 | -20.59604 | 38330 ft | 484 kts | 288° |
| 2026-05-08 11:32 | 57.10036 | -20.71603 | 38336 ft | 484 kts | 288° |
| 2026-05-08 11:33 | 57.11676 | -20.83624 | 38338 ft | 484 kts | 288° |
| 2026-05-08 11:33 | 57.13300 | -20.95639 | 38338 ft | 484 kts | 287° |
| 2026-05-08 11:34 | 57.14915 | -21.07681 | 38338 ft | 484 kts | 287° |
| 2026-05-08 11:34 | 57.16519 | -21.19737 | 38325 ft | 484 kts | 287° |
| 2026-05-08 11:35 | 57.18099 | -21.31713 | 38341 ft | 483 kts | 288° |
| 2026-05-08 11:35 | 57.19675 | -21.43754 | 38336 ft | 483 kts | 288° |
| 2026-05-08 11:36 | 57.21237 | -21.55796 | 38330 ft | 482 kts | 288° |
| 2026-05-08 11:36 | 57.22788 | -21.67836 | 38343 ft | 482 kts | 288° |
| 2026-05-08 11:37 | 57.24327 | -21.79891 | 38346 ft | 482 kts | 287° |
| 2026-05-08 11:37 | 57.25853 | -21.91936 | 38322 ft | 482 kts | 287° |
| 2026-05-08 11:38 | 57.27365 | -22.03988 | 38352 ft | 481 kts | 288° |
| 2026-05-08 11:38 | 57.28612 | -22.13990 | 38352 ft | 481 kts | 288° |
| 2026-05-08 11:39 | 57.30102 | -22.26044 | 38351 ft | 481 kts | 287° |
| 2026-05-08 11:39 | 57.31828 | -22.40129 | 38347 ft | 480 kts | 288° |
| 2026-05-08 11:40 | 57.33043 | -22.50143 | 38362 ft | 479 kts | 288° |
| 2026-05-08 11:40 | 57.34494 | -22.62186 | 38362 ft | 479 kts | 287° |
| 2026-05-08 11:41 | 57.35931 | -22.74222 | 38365 ft | 478 kts | 288° |
| 2026-05-08 11:41 | 57.37356 | -22.86251 | 38364 ft | 478 kts | 288° |
| 2026-05-08 11:42 | 57.38770 | -22.98304 | 38369 ft | 478 kts | 288° |
| 2026-05-08 11:42 | 57.40165 | -23.10292 | 38370 ft | 478 kts | 288° |
| 2026-05-08 11:43 | 57.41554 | -23.22350 | 38373 ft | 478 kts | 287° |
| 2026-05-08 11:43 | 57.42943 | -23.34514 | 38365 ft | 478 kts | 288° |
| 2026-05-08 11:44 | 57.44298 | -23.46496 | 38382 ft | 477 kts | 288° |
| 2026-05-08 11:44 | 57.45648 | -23.58535 | 38382 ft | 476 kts | 288° |
| 2026-05-08 11:45 | 57.46987 | -23.70584 | 38390 ft | 476 kts | 288° |
| 2026-05-08 11:45 | 57.48314 | -23.82636 | 38389 ft | 476 kts | 287° |
| 2026-05-08 11:46 | 57.49632 | -23.94718 | 38389 ft | 476 kts | 287° |
| 2026-05-08 11:46 | 57.50935 | -24.06789 | 38393 ft | 476 kts | 287° |
| 2026-05-08 11:47 | 57.52228 | -24.18874 | 38393 ft | 476 kts | 287° |
| 2026-05-08 11:47 | 57.53505 | -24.30934 | 38391 ft | 474 kts | 287° |
| 2026-05-08 11:48 | 57.54766 | -24.42960 | 38397 ft | 473 kts | 287° |
| 2026-05-08 11:48 | 57.56013 | -24.54962 | 38409 ft | 472 kts | 287° |
| 2026-05-08 11:49 | 57.57251 | -24.66983 | 38410 ft | 472 kts | 287° |
| 2026-05-08 11:49 | 57.58476 | -24.79008 | 38411 ft | 472 kts | 287° |
| 2026-05-08 11:50 | 57.59688 | -24.91031 | 38423 ft | 471 kts | 287° |
| 2026-05-08 11:50 | 57.60881 | -25.03002 | 38416 ft | 469 kts | 287° |
| 2026-05-08 11:51 | 57.62062 | -25.14950 | 38418 ft | 468 kts | 287° |
| 2026-05-08 11:51 | 57.63234 | -25.26917 | 38406 ft | 468 kts | 287° |
| 2026-05-08 11:52 | 57.64388 | -25.38846 | 38422 ft | 466 kts | 287° |
| 2026-05-08 11:52 | 57.65527 | -25.50738 | 38424 ft | 465 kts | 287° |
| 2026-05-08 11:53 | 57.66654 | -25.62626 | 38423 ft | 465 kts | 286° |
| 2026-05-08 11:53 | 57.67773 | -25.74539 | 38427 ft | 465 kts | 286° |
| 2026-05-08 11:54 | 57.68878 | -25.86449 | 38425 ft | 465 kts | 286° |
| 2026-05-08 11:54 | 57.69974 | -25.98385 | 38427 ft | 466 kts | 286° |
| 2026-05-08 11:55 | 57.71058 | -26.10326 | 38438 ft | 466 kts | 286° |
| 2026-05-08 11:55 | 57.72131 | -26.22276 | 38421 ft | 466 kts | 286° |
| 2026-05-08 11:56 | 57.73191 | -26.34213 | 38400 ft | 464 kts | 285° |
| 2026-05-08 11:56 | 57.74227 | -26.46023 | 38440 ft | 462 kts | 285° |
| 2026-05-08 11:57 | 57.75259 | -26.57896 | 38445 ft | 462 kts | 285° |
| 2026-05-08 11:57 | 57.76280 | -26.69778 | 38444 ft | 462 kts | 285° |
| 2026-05-08 11:58 | 57.77290 | -26.81670 | 38445 ft | 462 kts | 285° |
| 2026-05-08 11:58 | 57.78289 | -26.93573 | 38459 ft | 462 kts | 285° |
| 2026-05-08 11:59 | 57.79765 | -27.11428 | 38453 ft | 462 kts | 284° |
| 2026-05-08 11:59 | 57.80734 | -27.23334 | 38457 ft | 461 kts | 284° |
| 2026-05-08 12:00 | 57.81691 | -27.35221 | 38465 ft | 461 kts | 284° |
| 2026-05-08 12:00 | 57.82636 | -27.47109 | 38465 ft | 461 kts | 284° |
| 2026-05-08 12:01 | 57.83570 | -27.59007 | 38465 ft | 461 kts | 284° |
| 2026-05-08 12:01 | 57.84494 | -27.70913 | 38468 ft | 461 kts | 284° |
| 2026-05-08 12:02 | 57.85406 | -27.82835 | 38431 ft | 461 kts | 284° |
| 2026-05-08 12:02 | 57.86307 | -27.94750 | 38476 ft | 461 kts | 284° |
| 2026-05-08 12:03 | 57.87191 | -28.06612 | 38479 ft | 461 kts | 283° |
| 2026-05-08 12:03 | 57.88076 | -28.18636 | 38469 ft | 461 kts | 283° |
| 2026-05-08 12:04 | 57.88938 | -28.30491 | 38481 ft | 461 kts | 283° |
| 2026-05-08 12:04 | 57.89794 | -28.42441 | 38481 ft | 461 kts | 283° |
| 2026-05-08 12:05 | 57.90639 | -28.54388 | 38481 ft | 461 kts | 283° |
| 2026-05-08 12:05 | 57.91473 | -28.66345 | 38477 ft | 461 kts | 283° |
| 2026-05-08 12:06 | 57.92295 | -28.78297 | 38486 ft | 461 kts | 283° |
| 2026-05-08 12:06 | 57.93106 | -28.90255 | 38485 ft | 461 kts | 282° |
| 2026-05-08 12:07 | 57.93880 | -29.02218 | 38485 ft | 461 kts | 282° |
| 2026-05-08 12:07 | 57.94647 | -29.14201 | 38484 ft | 461 kts | 282° |
| 2026-05-08 12:08 | 57.95440 | -29.26182 | 38486 ft | 460 kts | 282° |
| 2026-05-08 12:08 | 57.96214 | -29.38047 | 38480 ft | 460 kts | 282° |
| 2026-05-08 12:09 | 57.96971 | -29.49991 | 38488 ft | 459 kts | 282° |
| 2026-05-08 12:09 | 57.97711 | -29.61930 | 38497 ft | 459 kts | 282° |
| 2026-05-08 12:10 | 57.98441 | -29.73889 | 38488 ft | 459 kts | 282° |
| 2026-05-08 12:10 | 57.99162 | -29.85851 | 38487 ft | 459 kts | 282° |
| 2026-05-08 12:11 | 57.99869 | -29.97819 | 38492 ft | 459 kts | 281° |
| 2026-05-08 12:11 | 58.00476 | -30.09809 | 38500 ft | 461 kts | 279° |
| 2026-05-08 12:12 | 58.00893 | -30.21870 | 38493 ft | 461 kts | 278° |
| 2026-05-08 12:12 | 58.01296 | -30.33918 | 38495 ft | 460 kts | 279° |
| 2026-05-08 12:13 | 58.01725 | -30.45977 | 38495 ft | 460 kts | 279° |
| 2026-05-08 12:13 | 58.02152 | -30.58007 | 38493 ft | 460 kts | 279° |
| 2026-05-08 12:14 | 58.02568 | -30.70063 | 38496 ft | 460 kts | 279° |
| 2026-05-08 12:14 | 58.02968 | -30.82101 | 38496 ft | 460 kts | 279° |
| 2026-05-08 12:15 | 58.03359 | -30.94172 | 38494 ft | 459 kts | 278° |
| 2026-05-08 12:15 | 58.03747 | -31.06113 | 38496 ft | 459 kts | 278° |
| 2026-05-08 12:16 | 58.04101 | -31.18062 | 38491 ft | 459 kts | 278° |
| 2026-05-08 12:16 | 58.04444 | -31.30089 | 38482 ft | 458 kts | 278° |
| 2026-05-08 12:17 | 58.04779 | -31.41998 | 38500 ft | 457 kts | 278° |
| 2026-05-08 12:17 | 58.05110 | -31.53985 | 38489 ft | 457 kts | 278° |
| 2026-05-08 12:18 | 58.05431 | -31.65982 | 38490 ft | 457 kts | 277° |
| 2026-05-08 12:18 | 58.05739 | -31.77940 | 38488 ft | 456 kts | 277° |
| 2026-05-08 12:19 | 58.06036 | -31.89905 | 38488 ft | 456 kts | 277° |
| 2026-05-08 12:19 | 58.06322 | -32.01884 | 38488 ft | 456 kts | 277° |
| 2026-05-08 12:20 | 58.06596 | -32.13846 | 38485 ft | 456 kts | 277° |
| 2026-05-08 12:20 | 58.06859 | -32.25831 | 38490 ft | 456 kts | 277° |
| 2026-05-08 12:21 | 58.07111 | -32.37800 | 38466 ft | 455 kts | 277° |
| 2026-05-08 12:21 | 58.07350 | -32.49732 | 38484 ft | 454 kts | 276° |
| 2026-05-08 12:22 | 58.07577 | -32.61628 | 38484 ft | 453 kts | 276° |
| 2026-05-08 12:22 | 58.07795 | -32.73532 | 38484 ft | 453 kts | 276° |
| 2026-05-08 12:23 | 58.08000 | -32.85383 | 38481 ft | 453 kts | 276° |
| 2026-05-08 12:23 | 58.08194 | -32.97279 | 38481 ft | 453 kts | 276° |
| 2026-05-08 12:24 | 58.08377 | -33.09130 | 38481 ft | 453 kts | 276° |
| 2026-05-08 12:24 | 58.08549 | -33.21035 | 38481 ft | 453 kts | 276° |
| 2026-05-08 12:25 | 58.08711 | -33.32952 | 38481 ft | 453 kts | 276° |
| 2026-05-08 12:25 | 58.08838 | -33.42924 | 38477 ft | 453 kts | 276° |
| 2026-05-08 12:26 | 58.08999 | -33.56718 | 38476 ft | 451 kts | 276° |
| 2026-05-08 12:26 | 58.09106 | -33.66636 | 38476 ft | 451 kts | 276° |
| 2026-05-08 12:27 | 58.09225 | -33.78480 | 38476 ft | 450 kts | 275° |
| 2026-05-08 12:27 | 58.09332 | -33.90312 | 38465 ft | 450 kts | 275° |
| 2026-05-08 12:28 | 58.09427 | -34.02098 | 38468 ft | 448 kts | 275° |
| 2026-05-08 12:28 | 58.09512 | -34.13800 | 38464 ft | 448 kts | 275° |
| 2026-05-08 12:29 | 58.09586 | -34.25566 | 38463 ft | 448 kts | 275° |
| 2026-05-08 12:29 | 58.09650 | -34.37348 | 38464 ft | 448 kts | 275° |
| 2026-05-08 12:30 | 58.09702 | -34.49130 | 38456 ft | 448 kts | 275° |
| 2026-05-08 12:30 | 58.09742 | -34.60850 | 38440 ft | 445 kts | 275° |
| 2026-05-08 12:31 | 58.09772 | -34.72523 | 38454 ft | 443 kts | 275° |
| 2026-05-08 12:31 | 58.09792 | -34.84173 | 38450 ft | 443 kts | 275° |
| 2026-05-08 12:32 | 58.09802 | -34.95820 | 38453 ft | 443 kts | 275° |
| 2026-05-08 12:32 | 58.09801 | -35.07481 | 38446 ft | 443 kts | 274° |
| 2026-05-08 12:33 | 58.09789 | -35.19123 | 38440 ft | 443 kts | 274° |
| 2026-05-08 12:33 | 58.09766 | -35.30776 | 38442 ft | 443 kts | 274° |
| 2026-05-08 12:34 | 58.09733 | -35.42441 | 38451 ft | 443 kts | 274° |
| 2026-05-08 12:34 | 58.09689 | -35.54096 | 38429 ft | 443 kts | 274° |
| 2026-05-08 12:35 | 58.09634 | -35.65749 | 38429 ft | 443 kts | 274° |
| 2026-05-08 12:35 | 58.09568 | -35.77385 | 38419 ft | 443 kts | 274° |
| 2026-05-08 12:36 | 58.09493 | -35.89027 | 38428 ft | 443 kts | 274° |
| 2026-05-08 12:36 | 58.09406 | -36.00676 | 38415 ft | 443 kts | 274° |
| 2026-05-08 12:37 | 58.09309 | -36.12331 | 38399 ft | 443 kts | 274° |
| 2026-05-08 12:37 | 58.09201 | -36.23988 | 38411 ft | 444 kts | 274° |
| 2026-05-08 12:38 | 58.09082 | -36.35667 | 38412 ft | 445 kts | 274° |
| 2026-05-08 12:38 | 58.08953 | -36.47284 | 38402 ft | 445 kts | 274° |
| 2026-05-08 12:39 | 58.08813 | -36.58955 | 38400 ft | 445 kts | 274° |
| 2026-05-08 12:39 | 58.08662 | -36.70643 | 38400 ft | 445 kts | 273° |
| 2026-05-08 12:40 | 58.08501 | -36.82319 | 38396 ft | 444 kts | 273° |
| 2026-05-08 12:40 | 58.08329 | -36.94002 | 38387 ft | 444 kts | 273° |
| 2026-05-08 12:41 | 58.08146 | -37.05666 | 38386 ft | 444 kts | 272° |
| 2026-05-08 12:41 | 58.07952 | -37.17337 | 38383 ft | 444 kts | 272° |
| 2026-05-08 12:42 | 58.07748 | -37.29016 | 38378 ft | 444 kts | 272° |
| 2026-05-08 12:42 | 58.07533 | -37.40683 | 38378 ft | 444 kts | 272° |
| 2026-05-08 12:43 | 58.07308 | -37.52352 | 38374 ft | 444 kts | 272° |
| 2026-05-08 12:43 | 58.07072 | -37.64021 | 38372 ft | 444 kts | 271° |
| 2026-05-08 12:44 | 58.06826 | -37.75531 | 38361 ft | 437 kts | 271° |
| 2026-05-08 12:44 | 58.06572 | -37.86943 | 38364 ft | 434 kts | 271° |
| 2026-05-08 12:45 | 58.06313 | -37.98321 | 38362 ft | 433 kts | 271° |
| 2026-05-08 12:45 | 58.06043 | -38.09677 | 38349 ft | 433 kts | 271° |
| 2026-05-08 12:46 | 58.05763 | -38.21050 | 38349 ft | 433 kts | 270° |
| 2026-05-08 12:46 | 58.05471 | -38.32411 | 38346 ft | 433 kts | 270° |
| 2026-05-08 12:47 | 58.05171 | -38.43664 | 38342 ft | 425 kts | 270° |
| 2026-05-08 12:47 | 58.04866 | -38.54739 | 38333 ft | 421 kts | 270° |
| 2026-05-08 12:48 | 58.04555 | -38.65792 | 38328 ft | 421 kts | 270° |
| 2026-05-08 12:48 | 58.04237 | -38.76766 | 38329 ft | 421 kts | 269° |
| 2026-05-08 12:49 | 58.03907 | -38.87757 | 38327 ft | 419 kts | 269° |
| 2026-05-08 12:49 | 58.03568 | -38.98736 | 38311 ft | 419 kts | 269° |
| 2026-05-08 12:50 | 58.03219 | -39.09712 | 38296 ft | 418 kts | 269° |
| 2026-05-08 12:50 | 58.02862 | -39.20656 | 38312 ft | 417 kts | 269° |
| 2026-05-08 12:51 | 58.02311 | -39.37031 | 38296 ft | 417 kts | 269° |
| 2026-05-08 12:52 | 58.01932 | -39.47940 | 38291 ft | 417 kts | 269° |
| 2026-05-08 12:52 | 58.01347 | -39.64280 | 38287 ft | 416 kts | 269° |
| 2026-05-08 12:53 | 58.00944 | -39.75176 | 38286 ft | 416 kts | 269° |
| 2026-05-08 12:53 | 58.00532 | -39.86058 | 38264 ft | 415 kts | 269° |
| 2026-05-08 12:54 | 58.00127 | -39.96790 | 38269 ft | 411 kts | 270° |
| 2026-05-08 12:54 | 58.00284 | -40.07515 | 38267 ft | 408 kts | 276° |
| 2026-05-08 12:55 | 58.00670 | -40.18180 | 38263 ft | 408 kts | 276° |
| 2026-05-08 12:55 | 58.01084 | -40.28853 | 38257 ft | 408 kts | 276° |
| 2026-05-08 12:56 | 58.01485 | -40.39535 | 38260 ft | 408 kts | 276° |
| 2026-05-08 12:56 | 58.01869 | -40.50204 | 38255 ft | 408 kts | 276° |
| 2026-05-08 12:57 | 58.02242 | -40.60885 | 38247 ft | 408 kts | 276° |
| 2026-05-08 12:57 | 58.02605 | -40.71559 | 38242 ft | 408 kts | 276° |
| 2026-05-08 12:58 | 58.02959 | -40.82221 | 38236 ft | 407 kts | 276° |
| 2026-05-08 12:58 | 58.03305 | -40.92890 | 38234 ft | 407 kts | 276° |
| 2026-05-08 12:59 | 58.03642 | -41.03566 | 38228 ft | 407 kts | 276° |
| 2026-05-08 12:59 | 58.03970 | -41.14244 | 38233 ft | 407 kts | 276° |
| 2026-05-08 13:00 | 58.04288 | -41.24917 | 38231 ft | 407 kts | 276° |
| 2026-05-08 13:00 | 58.04595 | -41.35510 | 38225 ft | 407 kts | 276° |
| 2026-05-08 13:01 | 58.04896 | -41.46179 | 38223 ft | 407 kts | 276° |
| 2026-05-08 13:01 | 58.05188 | -41.56846 | 38216 ft | 403 kts | 275° |
| 2026-05-08 13:02 | 58.05462 | -41.67273 | 38209 ft | 394 kts | 275° |
| 2026-05-08 13:02 | 58.05727 | -41.77572 | 38215 ft | 393 kts | 275° |
| 2026-05-08 13:03 | 58.05985 | -41.87882 | 38208 ft | 393 kts | 275° |
| 2026-05-08 13:03 | 58.06234 | -41.98185 | 38201 ft | 393 kts | 275° |
| 2026-05-08 13:04 | 58.06474 | -42.08497 | 38207 ft | 393 kts | 275° |
| 2026-05-08 13:04 | 58.06705 | -42.18813 | 38202 ft | 393 kts | 275° |
| 2026-05-08 13:05 | 58.06928 | -42.29126 | 38189 ft | 393 kts | 275° |
| 2026-05-08 13:05 | 58.07143 | -42.39450 | 38180 ft | 393 kts | 274° |
| 2026-05-08 13:06 | 58.07350 | -42.49712 | 38191 ft | 392 kts | 274° |
| 2026-05-08 13:06 | 58.07546 | -42.59991 | 38187 ft | 392 kts | 274° |
| 2026-05-08 13:07 | 58.07735 | -42.70280 | 38181 ft | 392 kts | 273° |
| 2026-05-08 13:07 | 58.07916 | -42.80577 | 38188 ft | 392 kts | 273° |
| 2026-05-08 13:08 | 58.08089 | -42.90870 | 38183 ft | 392 kts | 273° |
| 2026-05-08 13:08 | 58.08254 | -43.01162 | 38164 ft | 392 kts | 273° |
| 2026-05-08 13:09 | 58.08410 | -43.11456 | 38171 ft | 392 kts | 273° |
| 2026-05-08 13:09 | 58.08558 | -43.21760 | 38171 ft | 392 kts | 273° |
| 2026-05-08 13:10 | 58.08699 | -43.32062 | 38164 ft | 392 kts | 272° |
| 2026-05-08 13:10 | 58.08830 | -43.42308 | 38153 ft | 389 kts | 271° |
| 2026-05-08 13:11 | 58.08951 | -43.52532 | 38155 ft | 389 kts | 271° |
| 2026-05-08 13:11 | 58.09065 | -43.62766 | 38146 ft | 389 kts | 271° |
| 2026-05-08 13:12 | 58.09171 | -43.72988 | 38141 ft | 389 kts | 271° |
| 2026-05-08 13:12 | 58.09268 | -43.83208 | 38141 ft | 389 kts | 271° |
| 2026-05-08 13:13 | 58.09357 | -43.93369 | 38141 ft | 389 kts | 271° |
| 2026-05-08 13:13 | 58.09438 | -44.03593 | 38123 ft | 389 kts | 271° |
| 2026-05-08 13:14 | 58.09512 | -44.13824 | 38120 ft | 389 kts | 270° |
| 2026-05-08 13:14 | 58.09578 | -44.24069 | 38122 ft | 389 kts | 270° |
| 2026-05-08 13:15 | 58.09625 | -44.32544 | 38114 ft | 388 kts | 269° |
| 2026-05-08 13:15 | 58.09681 | -44.44470 | 38107 ft | 388 kts | 269° |
| 2026-05-08 13:16 | 58.09715 | -44.52963 | 38106 ft | 388 kts | 269° |
| 2026-05-08 13:16 | 58.09749 | -44.63157 | 38096 ft | 388 kts | 269° |
| 2026-05-08 13:17 | 58.09774 | -44.73362 | 38088 ft | 388 kts | 269° |
| 2026-05-08 13:17 | 58.09791 | -44.83567 | 38090 ft | 388 kts | 269° |
| 2026-05-08 13:18 | 58.09800 | -44.93769 | 38088 ft | 388 kts | 269° |
| 2026-05-08 13:18 | 58.09802 | -45.03986 | 38093 ft | 389 kts | 268° |
| 2026-05-08 13:19 | 58.09795 | -45.14208 | 38069 ft | 388 kts | 268° |
| 2026-05-08 13:19 | 58.09779 | -45.24422 | 38070 ft | 388 kts | 268° |
| 2026-05-08 13:20 | 58.09755 | -45.34624 | 38059 ft | 388 kts | 268° |
| 2026-05-08 13:20 | 58.09723 | -45.44830 | 38053 ft | 388 kts | 268° |
| 2026-05-08 13:21 | 58.09683 | -45.55045 | 38053 ft | 388 kts | 267° |
| 2026-05-08 13:21 | 58.09635 | -45.65246 | 38053 ft | 388 kts | 267° |
| 2026-05-08 13:22 | 58.09579 | -45.75453 | 38031 ft | 388 kts | 267° |
| 2026-05-08 13:22 | 58.09514 | -45.85613 | 38027 ft | 388 kts | 267° |
| 2026-05-08 13:23 | 58.09443 | -45.95828 | 38024 ft | 389 kts | 266° |
| 2026-05-08 13:23 | 58.09362 | -46.06047 | 38022 ft | 389 kts | 266° |
| 2026-05-08 13:24 | 58.09273 | -46.16247 | 38012 ft | 389 kts | 266° |
| 2026-05-08 13:24 | 58.09175 | -46.26469 | 38009 ft | 389 kts | 266° |
| 2026-05-08 13:25 | 58.09070 | -46.36697 | 37992 ft | 389 kts | 266° |
| 2026-05-08 13:25 | 58.08956 | -46.46910 | 37987 ft | 389 kts | 266° |
| 2026-05-08 13:26 | 58.08835 | -46.57110 | 37978 ft | 389 kts | 265° |
| 2026-05-08 13:26 | 58.08705 | -46.67334 | 37987 ft | 389 kts | 265° |
| 2026-05-08 13:27 | 58.08568 | -46.77482 | 37986 ft | 390 kts | 264° |
| 2026-05-08 13:27 | 58.08421 | -46.87730 | 37964 ft | 390 kts | 264° |
| 2026-05-08 13:28 | 58.08266 | -46.97989 | 37959 ft | 390 kts | 264° |
| 2026-05-08 13:28 | 58.08103 | -47.08230 | 37948 ft | 390 kts | 264° |
| 2026-05-08 13:29 | 58.07932 | -47.18492 | 37934 ft | 390 kts | 264° |
| 2026-05-08 13:29 | 58.07752 | -47.28734 | 37933 ft | 390 kts | 264° |
| 2026-05-08 13:30 | 58.07564 | -47.38995 | 37931 ft | 390 kts | 264° |
| 2026-05-08 13:30 | 58.07368 | -47.49236 | 37906 ft | 390 kts | 264° |
| 2026-05-08 13:31 | 58.07164 | -47.59493 | 37917 ft | 390 kts | 263° |
| 2026-05-08 13:31 | 58.06952 | -47.69742 | 37905 ft | 390 kts | 262° |
| 2026-05-08 13:32 | 58.06731 | -47.79965 | 37872 ft | 390 kts | 262° |
| 2026-05-08 13:32 | 58.06502 | -47.90200 | 37873 ft | 390 kts | 262° |
| 2026-05-08 13:33 | 58.06266 | -48.00373 | 37874 ft | 390 kts | 262° |
| 2026-05-08 13:33 | 58.06021 | -48.10600 | 37858 ft | 390 kts | 262° |
| 2026-05-08 13:34 | 58.05766 | -48.20890 | 37843 ft | 390 kts | 262° |
| 2026-05-08 13:34 | 58.05506 | -48.31053 | 37841 ft | 390 kts | 262° |
| 2026-05-08 13:35 | 58.05237 | -48.41266 | 37843 ft | 390 kts | 262° |
| 2026-05-08 13:35 | 58.04960 | -48.51492 | 37846 ft | 390 kts | 261° |
| 2026-05-08 13:36 | 58.04675 | -48.61700 | 37816 ft | 388 kts | 261° |
| 2026-05-08 13:36 | 58.04382 | -48.71874 | 37816 ft | 388 kts | 261° |
| 2026-05-08 13:37 | 58.04080 | -48.82058 | 37816 ft | 388 kts | 261° |
| 2026-05-08 13:37 | 58.03771 | -48.92224 | 37787 ft | 388 kts | 260° |
| 2026-05-08 13:38 | 58.03453 | -49.02395 | 37800 ft | 388 kts | 260° |
| 2026-05-08 13:38 | 58.03128 | -49.12567 | 37798 ft | 388 kts | 260° |
| 2026-05-08 13:39 | 58.02795 | -49.22728 | 37772 ft | 388 kts | 260° |
| 2026-05-08 13:39 | 58.02453 | -49.32887 | 37765 ft | 388 kts | 260° |
| 2026-05-08 13:40 | 58.02104 | -49.43045 | 37772 ft | 388 kts | 260° |
| 2026-05-08 13:40 | 58.01746 | -49.53201 | 37739 ft | 388 kts | 260° |
| 2026-05-08 13:41 | 58.01380 | -49.63363 | 37744 ft | 388 kts | 260° |
| 2026-05-08 13:41 | 58.01009 | -49.73441 | 37740 ft | 388 kts | 260° |
| 2026-05-08 13:42 | 58.00628 | -49.83588 | 37739 ft | 388 kts | 260° |
| 2026-05-08 13:42 | 58.00238 | -49.93727 | 37727 ft | 388 kts | 260° |
| 2026-05-08 13:43 | 57.99844 | -50.03873 | 37743 ft | 388 kts | 260° |
| 2026-05-08 13:43 | 57.99485 | -50.14026 | 37734 ft | 388 kts | 260° |
| 2026-05-08 13:44 | 57.99131 | -50.24198 | 37715 ft | 391 kts | 259° |
| 2026-05-08 13:44 | 57.98756 | -50.34455 | 37706 ft | 393 kts | 259° |
| 2026-05-08 13:45 | 57.98371 | -50.44721 | 37707 ft | 393 kts | 259° |
| 2026-05-08 13:45 | 57.97977 | -50.54977 | 37700 ft | 393 kts | 259° |
| 2026-05-08 13:46 | 57.97574 | -50.65246 | 37695 ft | 393 kts | 258° |
| 2026-05-08 13:46 | 57.97163 | -50.75508 | 37691 ft | 393 kts | 258° |
| 2026-05-08 13:47 | 57.96744 | -50.85763 | 37696 ft | 393 kts | 258° |
| 2026-05-08 13:47 | 57.96317 | -50.96012 | 37663 ft | 393 kts | 258° |
| 2026-05-08 13:48 | 57.95884 | -51.06197 | 37680 ft | 393 kts | 258° |
| 2026-05-08 13:48 | 57.95438 | -51.16488 | 37666 ft | 396 kts | 257° |
| 2026-05-08 13:49 | 57.94981 | -51.26831 | 37644 ft | 396 kts | 257° |
| 2026-05-08 13:49 | 57.94517 | -51.37165 | 37642 ft | 396 kts | 257° |
| 2026-05-08 13:50 | 57.94045 | -51.47490 | 37647 ft | 396 kts | 257° |
| 2026-05-08 13:50 | 57.93564 | -51.57825 | 37624 ft | 396 kts | 256° |
| 2026-05-08 13:51 | 57.93074 | -51.68138 | 37625 ft | 396 kts | 256° |
| 2026-05-08 13:51 | 57.92577 | -51.78446 | 37623 ft | 396 kts | 256° |
| 2026-05-08 13:52 | 57.92071 | -51.88762 | 37628 ft | 396 kts | 256° |
| 2026-05-08 13:52 | 57.91551 | -51.99126 | 37606 ft | 401 kts | 255° |
| 2026-05-08 13:53 | 57.91010 | -52.09671 | 37605 ft | 409 kts | 255° |
| 2026-05-08 13:53 | 57.90456 | -52.20384 | 37603 ft | 413 kts | 255° |
| 2026-05-08 13:54 | 57.89900 | -52.31131 | 37580 ft | 412 kts | 255° |
| 2026-05-08 13:54 | 57.89333 | -52.41841 | 37581 ft | 412 kts | 255° |
| 2026-05-08 13:55 | 57.88754 | -52.52543 | 37581 ft | 411 kts | 255° |
| 2026-05-08 13:56 | 57.87871 | -52.68518 | 37567 ft | 411 kts | 255° |
| 2026-05-08 13:56 | 57.87269 | -52.79204 | 37611 ft | 413 kts | 254° |
| 2026-05-08 13:57 | 57.86640 | -52.90065 | 37560 ft | 422 kts | 254° |
| 2026-05-08 13:57 | 57.85995 | -53.01110 | 37550 ft | 429 kts | 255° |
| 2026-05-08 13:58 | 57.85333 | -53.12344 | 37539 ft | 437 kts | 255° |
| 2026-05-08 13:58 | 57.84660 | -53.23688 | 37539 ft | 436 kts | 255° |
| 2026-05-08 13:59 | 57.83979 | -53.35000 | 37534 ft | 436 kts | 254° |
| 2026-05-08 13:59 | 57.83285 | -53.46279 | 37531 ft | 435 kts | 254° |
| 2026-05-08 14:00 | 57.82578 | -53.57569 | 37530 ft | 435 kts | 254° |
| 2026-05-08 14:00 | 57.81855 | -53.68895 | 37515 ft | 440 kts | 254° |
| 2026-05-08 14:01 | 57.81106 | -53.80402 | 37512 ft | 448 kts | 255° |
| 2026-05-08 14:01 | 57.80349 | -53.91975 | 37508 ft | 451 kts | 255° |
| 2026-05-08 14:02 | 57.79581 | -54.03647 | 37492 ft | 451 kts | 255° |
| 2026-05-08 14:02 | 57.78801 | -54.15305 | 37493 ft | 451 kts | 254° |
| 2026-05-08 14:03 | 57.78008 | -54.26942 | 37492 ft | 450 kts | 254° |
| 2026-05-08 14:03 | 57.77202 | -54.38581 | 37479 ft | 450 kts | 254° |
| 2026-05-08 14:04 | 57.76519 | -54.48336 | 37492 ft | 451 kts | 254° |
| 2026-05-08 14:04 | 57.75686 | -54.60018 | 37482 ft | 458 kts | 254° |
| 2026-05-08 14:05 | 57.74835 | -54.71857 | 37462 ft | 459 kts | 254° |
| 2026-05-08 14:05 | 57.73976 | -54.83717 | 37464 ft | 459 kts | 254° |
| 2026-05-08 14:06 | 57.73104 | -54.95554 | 37455 ft | 459 kts | 254° |
| 2026-05-08 14:06 | 57.72221 | -55.07373 | 37448 ft | 459 kts | 254° |
| 2026-05-08 14:07 | 57.71325 | -55.19201 | 37451 ft | 459 kts | 254° |
| 2026-05-08 14:07 | 57.70420 | -55.30999 | 37456 ft | 459 kts | 254° |
| 2026-05-08 14:08 | 57.69491 | -55.42900 | 37442 ft | 466 kts | 254° |
| 2026-05-08 14:08 | 57.68544 | -55.54930 | 37444 ft | 468 kts | 254° |
| 2026-05-08 14:09 | 57.67589 | -55.66962 | 37431 ft | 468 kts | 254° |
| 2026-05-08 14:09 | 57.66624 | -55.78964 | 37429 ft | 467 kts | 254° |
| 2026-05-08 14:10 | 57.65644 | -55.90972 | 37428 ft | 467 kts | 253° |
| 2026-05-08 14:10 | 57.64659 | -56.02895 | 37423 ft | 467 kts | 253° |
| 2026-05-08 14:11 | 57.63657 | -56.14876 | 37444 ft | 468 kts | 253° |
| 2026-05-08 14:11 | 57.62632 | -56.26939 | 37420 ft | 474 kts | 254° |
| 2026-05-08 14:12 | 57.61589 | -56.39119 | 37409 ft | 475 kts | 254° |
| 2026-05-08 14:12 | 57.60537 | -56.51294 | 37408 ft | 475 kts | 254° |
| 2026-05-08 14:13 | 57.59473 | -56.63464 | 37418 ft | 475 kts | 254° |
| 2026-05-08 14:13 | 57.58397 | -56.75611 | 37421 ft | 475 kts | 253° |
| 2026-05-08 14:14 | 57.57308 | -56.87757 | 37420 ft | 475 kts | 253° |
| 2026-05-08 14:14 | 57.56207 | -56.99886 | 37411 ft | 476 kts | 253° |
| 2026-05-08 14:15 | 57.55088 | -57.12077 | 37409 ft | 478 kts | 254° |
| 2026-05-08 14:15 | 57.53960 | -57.24289 | 37406 ft | 478 kts | 254° |
| 2026-05-08 14:16 | 57.52821 | -57.36479 | 37401 ft | 478 kts | 254° |
| 2026-05-08 14:16 | 57.51672 | -57.48673 | 37401 ft | 478 kts | 254° |
| 2026-05-08 14:17 | 57.50508 | -57.60846 | 37389 ft | 478 kts | 254° |
| 2026-05-08 14:17 | 57.49331 | -57.73013 | 37395 ft | 478 kts | 253° |
| 2026-05-08 14:18 | 57.48149 | -57.85086 | 37395 ft | 478 kts | 253° |
| 2026-05-08 14:18 | 57.46951 | -57.97238 | 37380 ft | 479 kts | 255° |
| 2026-05-08 14:19 | 57.46274 | -58.09696 | 37390 ft | 483 kts | 259° |
| 2026-05-08 14:19 | 57.45778 | -58.22060 | 37390 ft | 483 kts | 259° |
| 2026-05-08 14:20 | 57.45361 | -58.32728 | 37423 ft | 484 kts | 259° |
| 2026-05-08 14:20 | 57.45111 | -58.38953 | 37612 ft | 483 kts | 259° |
| 2026-05-08 14:20 | 57.44857 | -58.45165 | 37798 ft | 482 kts | 259° |
| 2026-05-08 14:20 | 57.44597 | -58.51360 | 37992 ft | 482 kts | 260° |
| 2026-05-08 14:21 | 57.44329 | -58.57598 | 38001 ft | 485 kts | 260° |
| 2026-05-08 14:21 | 57.43782 | -58.70108 | 38181 ft | 486 kts | 260° |
| 2026-05-08 14:21 | 57.43505 | -58.76365 | 38296 ft | 486 kts | 260° |
| 2026-05-08 14:22 | 57.43225 | -58.82623 | 38399 ft | 486 kts | 259° |
| 2026-05-08 14:22 | 57.42943 | -58.88857 | 38542 ft | 485 kts | 260° |
| 2026-05-08 14:22 | 57.42659 | -58.95077 | 38701 ft | 483 kts | 260° |
| 2026-05-08 14:23 | 57.42080 | -59.07520 | 38854 ft | 484 kts | 259° |
| 2026-05-08 14:23 | 57.41487 | -59.19960 | 39006 ft | 484 kts | 259° |
| 2026-05-08 14:24 | 57.40881 | -59.32418 | 39141 ft | 486 kts | 260° |
| 2026-05-08 14:24 | 57.40258 | -59.44962 | 39180 ft | 489 kts | 259° |
| 2026-05-08 14:25 | 57.39626 | -59.57498 | 39354 ft | 488 kts | 259° |
| 2026-05-08 14:25 | 57.38979 | -59.70043 | 39399 ft | 490 kts | 259° |
| 2026-05-08 14:26 | 57.38313 | -59.82638 | 39391 ft | 490 kts | 259° |
| 2026-05-08 14:26 | 57.37634 | -59.95169 | 39390 ft | 490 kts | 259° |
| 2026-05-08 14:27 | 57.36945 | -60.07722 | 39400 ft | 490 kts | 259° |
| 2026-05-08 14:27 | 57.36243 | -60.20320 | 39395 ft | 492 kts | 259° |
| 2026-05-08 14:28 | 57.35530 | -60.32923 | 39394 ft | 492 kts | 259° |
| 2026-05-08 14:28 | 57.34809 | -60.45425 | 39397 ft | 492 kts | 259° |
| 2026-05-08 14:29 | 57.34071 | -60.58007 | 39401 ft | 492 kts | 259° |
| 2026-05-08 14:29 | 57.33319 | -60.70605 | 39396 ft | 492 kts | 259° |
| 2026-05-08 14:30 | 57.32554 | -60.83183 | 39420 ft | 492 kts | 259° |
| 2026-05-08 14:30 | 57.31777 | -60.95771 | 39398 ft | 493 kts | 259° |
| 2026-05-08 14:31 | 57.30986 | -61.08365 | 39388 ft | 493 kts | 259° |
| 2026-05-08 14:31 | 57.30180 | -61.20987 | 39400 ft | 493 kts | 259° |
| 2026-05-08 14:32 | 57.28953 | -61.39840 | 39390 ft | 492 kts | 259° |
| 2026-05-08 14:32 | 57.28119 | -61.52392 | 39395 ft | 493 kts | 259° |
| 2026-05-08 14:33 | 57.27269 | -61.64992 | 39395 ft | 494 kts | 259° |
| 2026-05-08 14:33 | 57.26413 | -61.77503 | 39397 ft | 494 kts | 259° |
| 2026-05-08 14:34 | 57.25538 | -61.90098 | 39394 ft | 494 kts | 259° |
| 2026-05-08 14:34 | 57.24651 | -62.02688 | 39405 ft | 494 kts | 258° |
| 2026-05-08 14:35 | 57.23753 | -62.15240 | 39415 ft | 493 kts | 258° |
| 2026-05-08 14:35 | 57.22841 | -62.27804 | 39424 ft | 494 kts | 258° |
| 2026-05-08 14:36 | 57.21914 | -62.40385 | 39437 ft | 495 kts | 258° |
| 2026-05-08 14:36 | 57.20975 | -62.52966 | 39442 ft | 495 kts | 258° |
| 2026-05-08 14:37 | 57.19813 | -62.65451 | 39441 ft | 493 kts | 254° |
| 2026-05-08 14:37 | 57.18270 | -62.77757 | 39475 ft | 492 kts | 253° |
| 2026-05-08 14:38 | 57.16668 | -62.89923 | 39459 ft | 491 kts | 252° |
| 2026-05-08 14:38 | 57.15046 | -63.02122 | 39473 ft | 491 kts | 252° |
| 2026-05-08 14:39 | 57.13413 | -63.14358 | 39498 ft | 492 kts | 252° |
| 2026-05-08 14:39 | 57.11773 | -63.26579 | 39487 ft | 492 kts | 252° |
| 2026-05-08 14:40 | 57.10120 | -63.38801 | 39512 ft | 492 kts | 252° |
| 2026-05-08 14:40 | 57.08458 | -63.51000 | 39513 ft | 492 kts | 252° |
| 2026-05-08 14:41 | 57.06782 | -63.63195 | 39539 ft | 492 kts | 252° |
| 2026-05-08 14:41 | 57.05096 | -63.75367 | 39554 ft | 492 kts | 252° |
| 2026-05-08 14:42 | 57.03397 | -63.87535 | 39551 ft | 493 kts | 252° |
| 2026-05-08 14:42 | 57.01682 | -63.99718 | 39559 ft | 493 kts | 252° |
| 2026-05-08 14:43 | 56.99957 | -64.11884 | 39575 ft | 493 kts | 252° |
| 2026-05-08 14:43 | 56.98218 | -64.24051 | 39580 ft | 493 kts | 251° |
| 2026-05-08 14:44 | 56.96470 | -64.36193 | 39584 ft | 493 kts | 251° |
| 2026-05-08 14:44 | 56.94722 | -64.48234 | 39599 ft | 492 kts | 251° |
| 2026-05-08 14:45 | 56.92952 | -64.60333 | 39607 ft | 493 kts | 252° |
| 2026-05-08 14:45 | 56.91166 | -64.72456 | 39606 ft | 493 kts | 252° |
| 2026-05-08 14:46 | 56.89367 | -64.84573 | 39616 ft | 493 kts | 252° |
| 2026-05-08 14:46 | 56.87557 | -64.96678 | 39616 ft | 493 kts | 251° |
| 2026-05-08 14:47 | 56.85736 | -65.08767 | 39625 ft | 493 kts | 251° |
| 2026-05-08 14:47 | 56.83901 | -65.20853 | 39628 ft | 493 kts | 251° |
| 2026-05-08 14:48 | 56.82058 | -65.32905 | 39629 ft | 493 kts | 251° |
| 2026-05-08 14:48 | 56.80203 | -65.44951 | 39635 ft | 493 kts | 251° |
| 2026-05-08 14:49 | 56.78339 | -65.56970 | 39636 ft | 493 kts | 251° |
| 2026-05-08 14:49 | 56.76485 | -65.68834 | 39636 ft | 493 kts | 251° |
| 2026-05-08 14:50 | 56.74595 | -65.80850 | 39642 ft | 493 kts | 251° |
| 2026-05-08 14:50 | 56.72697 | -65.92823 | 39642 ft | 493 kts | 251° |
| 2026-05-08 14:51 | 56.70783 | -66.04813 | 39669 ft | 493 kts | 251° |
| 2026-05-08 14:51 | 56.68858 | -66.16793 | 39653 ft | 493 kts | 251° |
| 2026-05-08 14:52 | 56.66280 | -66.32705 | 39652 ft | 493 kts | 251° |
| 2026-05-08 14:53 | 56.64330 | -66.44646 | 39654 ft | 493 kts | 251° |
| 2026-05-08 14:53 | 56.62368 | -66.56577 | 39653 ft | 493 kts | 251° |
| 2026-05-08 14:54 | 56.60395 | -66.68490 | 39664 ft | 493 kts | 250° |
| 2026-05-08 14:54 | 56.58412 | -66.80384 | 39675 ft | 493 kts | 250° |
| 2026-05-08 14:55 | 56.56417 | -66.92268 | 39665 ft | 493 kts | 250° |
| 2026-05-08 14:55 | 56.54407 | -67.04165 | 39672 ft | 493 kts | 250° |
| 2026-05-08 14:56 | 56.52388 | -67.16033 | 39675 ft | 493 kts | 250° |
| 2026-05-08 14:56 | 56.50358 | -67.27889 | 39679 ft | 493 kts | 250° |
| 2026-05-08 14:57 | 56.48315 | -67.39737 | 39674 ft | 493 kts | 250° |
| 2026-05-08 14:57 | 56.46259 | -67.51586 | 39676 ft | 493 kts | 250° |
| 2026-05-08 14:58 | 56.44196 | -67.63397 | 39694 ft | 493 kts | 250° |
| 2026-05-08 14:58 | 56.42131 | -67.75142 | 39686 ft | 493 kts | 250° |
| 2026-05-08 14:59 | 56.40030 | -67.87021 | 39692 ft | 493 kts | 250° |
| 2026-05-08 14:59 | 56.36893 | -68.04607 | 39689 ft | 493 kts | 250° |
| 2026-05-08 15:00 | 56.34778 | -68.16368 | 39693 ft | 493 kts | 249° |
| 2026-05-08 15:00 | 56.32639 | -68.28190 | 39708 ft | 493 kts | 249° |
| 2026-05-08 15:01 | 56.30515 | -68.39857 | 39683 ft | 494 kts | 249° |
| 2026-05-08 15:01 | 56.28362 | -68.51601 | 39706 ft | 493 kts | 249° |
| 2026-05-08 15:02 | 56.26202 | -68.63317 | 39693 ft | 493 kts | 249° |
| 2026-05-08 15:02 | 56.24031 | -68.75017 | 39694 ft | 493 kts | 249° |
| 2026-05-08 15:03 | 56.21849 | -68.86702 | 39709 ft | 493 kts | 249° |
| 2026-05-08 15:03 | 56.19657 | -68.98371 | 39695 ft | 493 kts | 249° |
| 2026-05-08 15:04 | 56.17451 | -69.10041 | 39705 ft | 493 kts | 249° |
| 2026-05-08 15:04 | 56.15233 | -69.21702 | 39711 ft | 494 kts | 249° |
| 2026-05-08 15:05 | 56.13008 | -69.33331 | 39707 ft | 493 kts | 249° |
| 2026-05-08 15:05 | 56.10770 | -69.44960 | 39708 ft | 493 kts | 249° |
| 2026-05-08 15:06 | 56.08523 | -69.56561 | 39714 ft | 493 kts | 249° |
| 2026-05-08 15:06 | 56.06266 | -69.68146 | 39711 ft | 493 kts | 248° |
| 2026-05-08 15:07 | 56.03997 | -69.79721 | 39717 ft | 493 kts | 248° |
| 2026-05-08 15:07 | 56.01731 | -69.91214 | 39715 ft | 494 kts | 248° |
| 2026-05-08 15:08 | 55.99810 | -70.00907 | 39714 ft | 493 kts | 248° |
| 2026-05-08 15:08 | 55.96797 | -70.14048 | 39716 ft | 492 kts | 244° |
| 2026-05-08 15:09 | 55.93992 | -70.25189 | 39719 ft | 492 kts | 244° |
| 2026-05-08 15:09 | 55.91218 | -70.36341 | 39719 ft | 492 kts | 244° |
| 2026-05-08 15:10 | 55.88479 | -70.47501 | 39723 ft | 492 kts | 244° |
| 2026-05-08 15:10 | 55.85739 | -70.58683 | 39717 ft | 493 kts | 244° |
| 2026-05-08 15:11 | 55.82987 | -70.69854 | 39716 ft | 493 kts | 244° |
| 2026-05-08 15:11 | 55.80224 | -70.81005 | 39716 ft | 493 kts | 244° |
| 2026-05-08 15:12 | 55.77450 | -70.92138 | 39717 ft | 492 kts | 244° |
| 2026-05-08 15:12 | 55.74668 | -71.03246 | 39717 ft | 492 kts | 244° |
| 2026-05-08 15:13 | 55.71877 | -71.14335 | 39717 ft | 492 kts | 244° |
| 2026-05-08 15:13 | 55.69070 | -71.25430 | 39716 ft | 493 kts | 244° |
| 2026-05-08 15:14 | 55.66254 | -71.36509 | 39713 ft | 494 kts | 244° |
| 2026-05-08 15:14 | 55.63425 | -71.47581 | 39711 ft | 493 kts | 244° |
| 2026-05-08 15:15 | 55.60586 | -71.58639 | 39715 ft | 493 kts | 244° |
| 2026-05-08 15:15 | 55.57756 | -71.69607 | 39718 ft | 493 kts | 244° |
| 2026-05-08 15:16 | 55.54899 | -71.80627 | 39717 ft | 493 kts | 244° |
| 2026-05-08 15:16 | 55.52031 | -71.91633 | 39726 ft | 493 kts | 244° |
| 2026-05-08 15:17 | 55.49150 | -72.02635 | 39722 ft | 494 kts | 244° |
| 2026-05-08 15:17 | 55.46256 | -72.13631 | 39724 ft | 494 kts | 243° |
| 2026-05-08 15:18 | 55.43356 | -72.24601 | 39726 ft | 494 kts | 243° |
| 2026-05-08 15:18 | 55.40444 | -72.35562 | 39724 ft | 494 kts | 243° |
| 2026-05-08 15:19 | 55.37523 | -72.46502 | 39722 ft | 494 kts | 243° |
| 2026-05-08 15:19 | 55.34590 | -72.57437 | 39723 ft | 494 kts | 243° |
| 2026-05-08 15:20 | 55.31648 | -72.68348 | 39727 ft | 494 kts | 243° |
| 2026-05-08 15:20 | 55.28698 | -72.79242 | 39723 ft | 494 kts | 243° |
| 2026-05-08 15:21 | 55.25741 | -72.90108 | 39727 ft | 494 kts | 243° |
| 2026-05-08 15:21 | 55.22774 | -73.00958 | 39726 ft | 494 kts | 243° |
| 2026-05-08 15:22 | 55.19795 | -73.11799 | 39726 ft | 494 kts | 243° |
| 2026-05-08 15:22 | 55.16810 | -73.22615 | 39727 ft | 494 kts | 243° |
| 2026-05-08 15:23 | 55.13833 | -73.33349 | 39723 ft | 494 kts | 243° |
| 2026-05-08 15:23 | 55.10825 | -73.44145 | 39723 ft | 494 kts | 243° |
| 2026-05-08 15:24 | 55.07804 | -73.54935 | 39735 ft | 494 kts | 243° |
| 2026-05-08 15:24 | 55.04775 | -73.65705 | 39727 ft | 494 kts | 243° |
| 2026-05-08 15:25 | 55.01738 | -73.76454 | 39726 ft | 494 kts | 243° |
| 2026-05-08 15:25 | 54.98693 | -73.87186 | 39729 ft | 494 kts | 242° |
| 2026-05-08 15:26 | 54.95634 | -73.97911 | 39728 ft | 494 kts | 242° |
| 2026-05-08 15:26 | 54.92569 | -74.08609 | 39733 ft | 495 kts | 242° |
| 2026-05-08 15:27 | 54.89488 | -74.19314 | 39729 ft | 495 kts | 242° |
| 2026-05-08 15:27 | 54.86399 | -74.29998 | 39730 ft | 495 kts | 242° |
| 2026-05-08 15:28 | 54.83302 | -74.40663 | 39733 ft | 495 kts | 242° |
| 2026-05-08 15:28 | 54.80193 | -74.51318 | 39729 ft | 495 kts | 242° |
| 2026-05-08 15:29 | 54.77095 | -74.61889 | 39730 ft | 494 kts | 242° |
| 2026-05-08 15:29 | 54.73973 | -74.72489 | 39727 ft | 494 kts | 242° |
| 2026-05-08 15:30 | 54.70843 | -74.83075 | 39726 ft | 494 kts | 242° |
| 2026-05-08 15:30 | 54.67703 | -74.93644 | 39727 ft | 494 kts | 242° |
| 2026-05-08 15:31 | 54.64554 | -75.04200 | 39717 ft | 494 kts | 242° |
| 2026-05-08 15:31 | 54.61395 | -75.14738 | 39717 ft | 494 kts | 242° |
| 2026-05-08 15:32 | 54.58230 | -75.25251 | 39714 ft | 493 kts | 241° |
| 2026-05-08 15:32 | 54.55070 | -75.35703 | 39722 ft | 492 kts | 242° |
| 2026-05-08 15:33 | 54.51897 | -75.46149 | 39710 ft | 492 kts | 241° |
| 2026-05-08 15:33 | 54.48717 | -75.56572 | 39708 ft | 492 kts | 241° |
| 2026-05-08 15:34 | 54.45529 | -75.66974 | 39704 ft | 492 kts | 241° |
| 2026-05-08 15:34 | 54.42328 | -75.77375 | 39699 ft | 492 kts | 241° |
| 2026-05-08 15:35 | 54.39125 | -75.87741 | 39700 ft | 491 kts | 241° |
| 2026-05-08 15:35 | 54.35916 | -75.98079 | 39701 ft | 490 kts | 241° |
| 2026-05-08 15:36 | 54.33248 | -76.06642 | 39697 ft | 490 kts | 241° |
| 2026-05-08 15:36 | 54.29480 | -76.18681 | 39696 ft | 491 kts | 241° |
| 2026-05-08 15:37 | 54.26268 | -76.28896 | 39689 ft | 490 kts | 241° |
| 2026-05-08 15:37 | 54.23024 | -76.39167 | 39687 ft | 490 kts | 241° |
| 2026-05-08 15:38 | 54.19773 | -76.49417 | 39691 ft | 491 kts | 241° |
| 2026-05-08 15:38 | 54.16511 | -76.59662 | 39688 ft | 491 kts | 241° |
| 2026-05-08 15:39 | 54.13240 | -76.69889 | 39694 ft | 491 kts | 240° |
| 2026-05-08 15:39 | 54.09967 | -76.80081 | 39690 ft | 490 kts | 240° |
| 2026-05-08 15:40 | 54.07217 | -76.88611 | 39690 ft | 490 kts | 240° |
| 2026-05-08 15:40 | 54.03934 | -76.98753 | 39690 ft | 490 kts | 240° |
| 2026-05-08 15:41 | 54.00631 | -77.08914 | 39692 ft | 490 kts | 240° |
| 2026-05-08 15:41 | 53.97346 | -77.18980 | 39693 ft | 490 kts | 240° |
| 2026-05-08 15:42 | 53.94031 | -77.29096 | 39692 ft | 490 kts | 240° |
| 2026-05-08 15:42 | 53.90709 | -77.39190 | 39683 ft | 490 kts | 240° |
| 2026-05-08 15:43 | 53.87376 | -77.49275 | 39677 ft | 490 kts | 240° |
| 2026-05-08 15:43 | 53.84035 | -77.59344 | 39665 ft | 490 kts | 240° |
| 2026-05-08 15:44 | 53.80684 | -77.69402 | 39659 ft | 490 kts | 240° |
| 2026-05-08 15:44 | 53.77328 | -77.79431 | 39655 ft | 490 kts | 240° |
| 2026-05-08 15:45 | 53.73963 | -77.89450 | 39681 ft | 490 kts | 240° |
| 2026-05-08 15:45 | 53.70597 | -77.99429 | 39680 ft | 490 kts | 240° |
| 2026-05-08 15:46 | 53.67220 | -78.09402 | 39678 ft | 490 kts | 240° |
| 2026-05-08 15:46 | 53.63837 | -78.19354 | 39677 ft | 490 kts | 240° |
| 2026-05-08 15:47 | 53.60436 | -78.29318 | 39677 ft | 490 kts | 240° |
| 2026-05-08 15:47 | 53.57032 | -78.39249 | 39681 ft | 490 kts | 240° |
| 2026-05-08 15:48 | 53.51905 | -78.54125 | 39681 ft | 490 kts | 240° |
| 2026-05-08 15:49 | 53.48475 | -78.64028 | 39683 ft | 491 kts | 240° |
| 2026-05-08 15:49 | 53.45058 | -78.73858 | 39675 ft | 491 kts | 240° |
| 2026-05-08 15:50 | 53.41606 | -78.83748 | 39677 ft | 491 kts | 240° |
| 2026-05-08 15:50 | 53.38148 | -78.93616 | 39678 ft | 491 kts | 240° |
| 2026-05-08 15:51 | 53.34678 | -79.03478 | 39677 ft | 491 kts | 240° |
| 2026-05-08 15:51 | 53.31207 | -79.13306 | 39678 ft | 491 kts | 239° |
| 2026-05-08 15:52 | 53.27719 | -79.23140 | 39678 ft | 491 kts | 239° |
| 2026-05-08 15:52 | 53.24230 | -79.32941 | 39675 ft | 491 kts | 240° |
| 2026-05-08 15:53 | 53.20738 | -79.42709 | 39677 ft | 490 kts | 239° |
| 2026-05-08 15:53 | 53.17239 | -79.52461 | 39678 ft | 490 kts | 239° |
| 2026-05-08 15:54 | 53.13735 | -79.62189 | 39677 ft | 490 kts | 239° |
| 2026-05-08 15:54 | 53.10227 | -79.71890 | 39677 ft | 490 kts | 239° |
| 2026-05-08 15:55 | 53.06730 | -79.81523 | 39677 ft | 490 kts | 239° |
| 2026-05-08 15:55 | 53.01406 | -79.96118 | 39681 ft | 490 kts | 239° |
| 2026-05-08 15:56 | 52.98267 | -80.06055 | 39675 ft | 489 kts | 244° |
| 2026-05-08 15:56 | 52.95313 | -80.16311 | 39675 ft | 489 kts | 245° |
| 2026-05-08 15:57 | 52.92428 | -80.26441 | 39675 ft | 489 kts | 245° |
| 2026-05-08 15:57 | 52.89512 | -80.36621 | 39674 ft | 489 kts | 245° |
| 2026-05-08 15:58 | 52.86576 | -80.46800 | 39672 ft | 490 kts | 245° |
| 2026-05-08 15:58 | 52.83634 | -80.56942 | 39677 ft | 489 kts | 245° |
| 2026-05-08 15:59 | 52.80684 | -80.67067 | 39676 ft | 489 kts | 245° |
| 2026-05-08 15:59 | 52.77725 | -80.77181 | 39674 ft | 489 kts | 245° |
| 2026-05-08 16:00 | 52.74758 | -80.87278 | 39674 ft | 489 kts | 245° |
| 2026-05-08 16:00 | 52.71779 | -80.97371 | 39686 ft | 489 kts | 245° |
| 2026-05-08 16:01 | 52.68798 | -81.07435 | 39675 ft | 489 kts | 245° |
| 2026-05-08 16:01 | 52.65806 | -81.17490 | 39675 ft | 488 kts | 245° |
| 2026-05-08 16:02 | 52.62807 | -81.27526 | 39678 ft | 488 kts | 245° |
| 2026-05-08 16:02 | 52.59805 | -81.37530 | 39678 ft | 488 kts | 245° |
| 2026-05-08 16:03 | 52.56793 | -81.47527 | 39677 ft | 488 kts | 245° |
| 2026-05-08 16:03 | 52.53774 | -81.57504 | 39682 ft | 488 kts | 244° |
| 2026-05-08 16:04 | 52.50740 | -81.67492 | 39680 ft | 488 kts | 244° |
| 2026-05-08 16:04 | 52.47718 | -81.77395 | 39678 ft | 488 kts | 244° |
| 2026-05-08 16:05 | 52.44673 | -81.87336 | 39684 ft | 487 kts | 244° |
| 2026-05-08 16:05 | 52.41625 | -81.97245 | 39687 ft | 487 kts | 244° |
| 2026-05-08 16:06 | 52.38572 | -82.07128 | 39681 ft | 487 kts | 244° |
| 2026-05-08 16:06 | 52.35509 | -82.17004 | 39685 ft | 487 kts | 244° |
| 2026-05-08 16:07 | 52.32431 | -82.26890 | 39683 ft | 487 kts | 244° |
| 2026-05-08 16:07 | 52.29347 | -82.36754 | 39683 ft | 487 kts | 244° |
| 2026-05-08 16:08 | 52.26259 | -82.46587 | 39681 ft | 487 kts | 244° |
| 2026-05-08 16:08 | 52.23160 | -82.56418 | 39688 ft | 487 kts | 244° |
| 2026-05-08 16:09 | 52.20580 | -82.64575 | 39689 ft | 486 kts | 244° |
| 2026-05-08 16:09 | 52.16948 | -82.76009 | 39681 ft | 486 kts | 244° |
| 2026-05-08 16:10 | 52.13850 | -82.85720 | 39689 ft | 486 kts | 244° |
| 2026-05-08 16:10 | 52.10726 | -82.95476 | 39684 ft | 486 kts | 244° |
| 2026-05-08 16:11 | 52.07592 | -83.05221 | 39676 ft | 486 kts | 244° |
| 2026-05-08 16:11 | 52.04455 | -83.14937 | 39682 ft | 485 kts | 244° |
| 2026-05-08 16:12 | 52.01317 | -83.24618 | 39682 ft | 484 kts | 244° |
| 2026-05-08 16:12 | 51.98170 | -83.34289 | 39684 ft | 484 kts | 244° |
| 2026-05-08 16:13 | 51.95019 | -83.43935 | 39682 ft | 484 kts | 244° |
| 2026-05-08 16:13 | 51.91858 | -83.53575 | 39684 ft | 484 kts | 244° |
| 2026-05-08 16:14 | 51.88692 | -83.63192 | 39688 ft | 484 kts | 244° |
| 2026-05-08 16:14 | 51.85514 | -83.72805 | 39682 ft | 484 kts | 244° |
| 2026-05-08 16:15 | 51.82334 | -83.82389 | 39684 ft | 483 kts | 244° |
| 2026-05-08 16:15 | 51.79149 | -83.91954 | 39688 ft | 483 kts | 244° |
| 2026-05-08 16:16 | 51.75949 | -84.01525 | 39677 ft | 483 kts | 244° |
| 2026-05-08 16:16 | 51.72748 | -84.11061 | 39684 ft | 484 kts | 244° |
| 2026-05-08 16:17 | 51.70083 | -84.18974 | 39674 ft | 483 kts | 244° |
| 2026-05-08 16:17 | 51.66320 | -84.30105 | 39676 ft | 484 kts | 244° |
| 2026-05-08 16:18 | 51.63097 | -84.39598 | 39678 ft | 483 kts | 243° |
| 2026-05-08 16:18 | 51.59864 | -84.49084 | 39678 ft | 483 kts | 243° |
| 2026-05-08 16:19 | 51.56627 | -84.58546 | 39684 ft | 483 kts | 243° |
| 2026-05-08 16:19 | 51.53381 | -84.68000 | 39680 ft | 483 kts | 243° |
| 2026-05-08 16:20 | 51.50128 | -84.77440 | 39686 ft | 483 kts | 243° |
| 2026-05-08 16:20 | 51.46866 | -84.86867 | 39682 ft | 483 kts | 243° |
| 2026-05-08 16:21 | 51.43623 | -84.96206 | 39680 ft | 483 kts | 243° |
| 2026-05-08 16:21 | 51.40349 | -85.05600 | 39686 ft | 483 kts | 243° |
| 2026-05-08 16:22 | 51.37601 | -85.13456 | 39684 ft | 483 kts | 243° |
| 2026-05-08 16:22 | 51.33757 | -85.24408 | 39679 ft | 483 kts | 243° |
| 2026-05-08 16:23 | 51.30476 | -85.33716 | 39689 ft | 484 kts | 243° |
| 2026-05-08 16:23 | 51.27158 | -85.43096 | 39688 ft | 484 kts | 243° |
| 2026-05-08 16:24 | 51.23838 | -85.52446 | 39692 ft | 484 kts | 243° |
| 2026-05-08 16:24 | 51.20510 | -85.61785 | 39694 ft | 484 kts | 243° |
| 2026-05-08 16:25 | 51.17174 | -85.71109 | 39688 ft | 484 kts | 242° |
| 2026-05-08 16:25 | 51.13828 | -85.80430 | 39689 ft | 485 kts | 242° |
| 2026-05-08 16:26 | 51.11040 | -85.88172 | 39686 ft | 485 kts | 242° |
| 2026-05-08 16:26 | 51.07675 | -85.97482 | 39691 ft | 485 kts | 242° |
| 2026-05-08 16:27 | 51.04303 | -86.06776 | 39691 ft | 485 kts | 242° |
| 2026-05-08 16:27 | 51.00924 | -86.16057 | 39688 ft | 485 kts | 242° |
| 2026-05-08 16:28 | 50.97537 | -86.25329 | 39685 ft | 485 kts | 242° |
| 2026-05-08 16:28 | 50.94165 | -86.34523 | 39693 ft | 486 kts | 242° |
| 2026-05-08 16:29 | 50.90783 | -86.43714 | 39694 ft | 486 kts | 242° |
| 2026-05-08 16:29 | 50.87375 | -86.52939 | 39694 ft | 486 kts | 242° |
| 2026-05-08 16:30 | 50.83958 | -86.62158 | 39697 ft | 486 kts | 242° |
| 2026-05-08 16:30 | 50.80531 | -86.71370 | 39699 ft | 486 kts | 242° |
| 2026-05-08 16:31 | 50.77094 | -86.80576 | 39698 ft | 486 kts | 241° |
| 2026-05-08 16:31 | 50.73652 | -86.89762 | 39708 ft | 486 kts | 241° |
| 2026-05-08 16:32 | 50.70198 | -86.98947 | 39708 ft | 487 kts | 241° |
| 2026-05-08 16:32 | 50.66736 | -87.08121 | 39708 ft | 487 kts | 241° |
| 2026-05-08 16:33 | 50.63268 | -87.17279 | 39713 ft | 486 kts | 241° |
| 2026-05-08 16:33 | 50.59793 | -87.26423 | 39712 ft | 486 kts | 241° |
| 2026-05-08 16:34 | 50.56319 | -87.35532 | 39719 ft | 486 kts | 240° |
| 2026-05-08 16:34 | 50.52835 | -87.44636 | 39721 ft | 486 kts | 240° |
| 2026-05-08 16:35 | 50.49345 | -87.53722 | 39722 ft | 486 kts | 240° |
| 2026-05-08 16:35 | 50.45849 | -87.62793 | 39727 ft | 486 kts | 240° |
| 2026-05-08 16:36 | 50.42359 | -87.71815 | 39724 ft | 486 kts | 240° |
| 2026-05-08 16:36 | 50.38847 | -87.80864 | 39726 ft | 485 kts | 240° |
| 2026-05-08 16:37 | 50.35341 | -87.89866 | 39735 ft | 483 kts | 240° |
| 2026-05-08 16:37 | 50.31833 | -87.98841 | 39736 ft | 483 kts | 240° |
| 2026-05-08 16:38 | 50.28318 | -88.07805 | 39738 ft | 483 kts | 240° |
| 2026-05-08 16:38 | 50.24817 | -88.16704 | 39733 ft | 483 kts | 240° |
| 2026-05-08 16:39 | 50.21309 | -88.25589 | 39741 ft | 484 kts | 240° |
| 2026-05-08 16:39 | 50.17777 | -88.34502 | 39729 ft | 484 kts | 240° |
| 2026-05-08 16:40 | 50.14237 | -88.43406 | 39724 ft | 482 kts | 240° |
| 2026-05-08 16:40 | 50.10699 | -88.52275 | 39725 ft | 482 kts | 240° |
| 2026-05-08 16:41 | 50.07157 | -88.61124 | 39713 ft | 482 kts | 240° |
| 2026-05-08 16:42 | 50.01822 | -88.74397 | 39717 ft | 483 kts | 240° |
| 2026-05-08 16:42 | 49.98252 | -88.83242 | 39721 ft | 483 kts | 240° |
| 2026-05-08 16:43 | 49.94674 | -88.92075 | 39726 ft | 483 kts | 240° |
| 2026-05-08 16:43 | 49.91097 | -89.00878 | 39725 ft | 482 kts | 240° |
| 2026-05-08 16:44 | 49.87520 | -89.09651 | 39721 ft | 481 kts | 240° |
| 2026-05-08 16:44 | 49.83932 | -89.18421 | 39736 ft | 482 kts | 240° |
| 2026-05-08 16:45 | 49.80335 | -89.27186 | 39733 ft | 482 kts | 240° |
| 2026-05-08 16:45 | 49.76725 | -89.35951 | 39733 ft | 482 kts | 240° |
| 2026-05-08 16:46 | 49.73135 | -89.44640 | 39727 ft | 482 kts | 240° |
| 2026-05-08 16:46 | 49.69517 | -89.53369 | 39738 ft | 482 kts | 240° |
| 2026-05-08 16:47 | 49.65893 | -89.62082 | 39739 ft | 482 kts | 240° |
| 2026-05-08 16:47 | 49.62267 | -89.70772 | 39742 ft | 482 kts | 240° |
| 2026-05-08 16:48 | 49.58630 | -89.79460 | 39736 ft | 482 kts | 240° |
| 2026-05-08 16:48 | 49.54989 | -89.88128 | 39736 ft | 482 kts | 240° |
| 2026-05-08 16:49 | 49.51336 | -89.96798 | 39728 ft | 482 kts | 240° |
| 2026-05-08 16:49 | 49.47755 | -90.05516 | 39738 ft | 481 kts | 242° |
| 2026-05-08 16:50 | 49.44466 | -90.14468 | 39737 ft | 481 kts | 244° |
| 2026-05-08 16:50 | 49.41219 | -90.23397 | 39741 ft | 481 kts | 243° |
| 2026-05-08 16:51 | 49.37908 | -90.32316 | 39737 ft | 481 kts | 243° |
| 2026-05-08 16:51 | 49.34562 | -90.41205 | 39741 ft | 481 kts | 243° |
| 2026-05-08 16:52 | 49.31199 | -90.50089 | 39739 ft | 482 kts | 243° |
| 2026-05-08 16:52 | 49.27834 | -90.58953 | 39741 ft | 481 kts | 243° |
| 2026-05-08 16:53 | 49.22777 | -90.72229 | 39753 ft | 481 kts | 243° |
| 2026-05-08 16:53 | 49.19398 | -90.81062 | 39751 ft | 481 kts | 243° |
| 2026-05-08 16:54 | 49.16015 | -90.89875 | 39762 ft | 481 kts | 243° |
| 2026-05-08 16:54 | 49.12621 | -90.98686 | 39761 ft | 481 kts | 243° |
| 2026-05-08 16:55 | 49.09222 | -91.07485 | 39760 ft | 481 kts | 242° |
| 2026-05-08 16:55 | 49.05816 | -91.16269 | 39758 ft | 481 kts | 242° |
| 2026-05-08 16:56 | 49.02408 | -91.25031 | 39766 ft | 480 kts | 242° |
| 2026-05-08 16:56 | 48.98992 | -91.33784 | 39759 ft | 480 kts | 242° |
| 2026-05-08 16:57 | 48.95572 | -91.42517 | 39762 ft | 480 kts | 242° |
| 2026-05-08 16:57 | 48.92170 | -91.51178 | 39763 ft | 480 kts | 242° |
| 2026-05-08 16:58 | 48.88734 | -91.59894 | 39766 ft | 480 kts | 242° |
| 2026-05-08 16:58 | 48.85295 | -91.68592 | 39766 ft | 480 kts | 242° |
| 2026-05-08 16:59 | 48.81862 | -91.77245 | 39756 ft | 480 kts | 242° |
| 2026-05-08 16:59 | 48.78403 | -91.85935 | 39765 ft | 480 kts | 242° |
| 2026-05-08 17:00 | 48.74967 | -91.94541 | 39768 ft | 480 kts | 242° |
| 2026-05-08 17:00 | 48.71498 | -92.03200 | 39770 ft | 480 kts | 242° |
| 2026-05-08 17:01 | 48.68027 | -92.11835 | 39771 ft | 480 kts | 242° |
| 2026-05-08 17:01 | 48.64545 | -92.20469 | 39766 ft | 481 kts | 242° |
| 2026-05-08 17:02 | 48.61060 | -92.29085 | 39766 ft | 481 kts | 242° |
| 2026-05-08 17:02 | 48.57565 | -92.37695 | 39768 ft | 480 kts | 242° |
| 2026-05-08 17:03 | 48.54071 | -92.46278 | 39768 ft | 480 kts | 242° |
| 2026-05-08 17:03 | 48.50568 | -92.54854 | 39769 ft | 480 kts | 242° |
| 2026-05-08 17:04 | 48.47060 | -92.63417 | 39766 ft | 480 kts | 242° |
| 2026-05-08 17:04 | 48.43540 | -92.71979 | 39772 ft | 481 kts | 242° |
| 2026-05-08 17:05 | 48.40016 | -92.80524 | 39749 ft | 481 kts | 242° |
| 2026-05-08 17:05 | 48.36482 | -92.89066 | 39765 ft | 480 kts | 242° |
| 2026-05-08 17:06 | 48.32956 | -92.97562 | 39763 ft | 479 kts | 242° |
| 2026-05-08 17:06 | 48.29442 | -93.06002 | 39755 ft | 480 kts | 242° |
| 2026-05-08 17:07 | 48.25895 | -93.14497 | 39761 ft | 480 kts | 242° |
| 2026-05-08 17:07 | 48.22317 | -93.23039 | 39757 ft | 480 kts | 241° |
| 2026-05-08 17:08 | 48.18757 | -93.31507 | 39765 ft | 480 kts | 241° |
| 2026-05-08 17:08 | 48.15191 | -93.39966 | 39762 ft | 480 kts | 241° |
| 2026-05-08 17:09 | 48.11619 | -93.48410 | 39763 ft | 480 kts | 241° |
| 2026-05-08 17:09 | 48.08073 | -93.56772 | 39769 ft | 480 kts | 241° |
| 2026-05-08 17:10 | 48.04486 | -93.65201 | 39760 ft | 480 kts | 241° |
| 2026-05-08 17:10 | 48.00896 | -93.73610 | 39761 ft | 480 kts | 241° |
| 2026-05-08 17:11 | 47.97300 | -93.82009 | 39755 ft | 480 kts | 241° |
| 2026-05-08 17:11 | 47.93697 | -93.90397 | 39740 ft | 480 kts | 241° |
| 2026-05-08 17:12 | 47.90699 | -93.97358 | 39745 ft | 479 kts | 241° |
| 2026-05-08 17:12 | 47.86479 | -94.07124 | 39751 ft | 479 kts | 241° |
| 2026-05-08 17:13 | 47.82866 | -94.15459 | 39752 ft | 479 kts | 241° |
| 2026-05-08 17:13 | 47.79247 | -94.23783 | 39742 ft | 479 kts | 241° |
| 2026-05-08 17:14 | 47.76226 | -94.30711 | 39746 ft | 480 kts | 241° |
| 2026-05-08 17:14 | 47.72589 | -94.39029 | 39740 ft | 480 kts | 241° |
| 2026-05-08 17:15 | 47.68938 | -94.47352 | 39739 ft | 480 kts | 240° |
| 2026-05-08 17:15 | 47.65292 | -94.55640 | 39735 ft | 479 kts | 240° |
| 2026-05-08 17:16 | 47.61645 | -94.63904 | 39733 ft | 480 kts | 240° |
| 2026-05-08 17:16 | 47.57982 | -94.72180 | 39738 ft | 480 kts | 240° |
| 2026-05-08 17:17 | 47.54316 | -94.80438 | 39739 ft | 480 kts | 240° |
| 2026-05-08 17:17 | 47.50640 | -94.88692 | 39739 ft | 480 kts | 240° |
| 2026-05-08 17:18 | 47.46962 | -94.96928 | 39736 ft | 480 kts | 240° |
| 2026-05-08 17:18 | 47.43279 | -95.05150 | 39729 ft | 480 kts | 240° |
| 2026-05-08 17:19 | 47.39583 | -95.13376 | 39741 ft | 480 kts | 240° |
| 2026-05-08 17:19 | 47.35882 | -95.21588 | 39741 ft | 480 kts | 240° |
| 2026-05-08 17:20 | 47.32200 | -95.29732 | 39729 ft | 480 kts | 240° |
| 2026-05-08 17:20 | 47.28490 | -95.37916 | 39754 ft | 480 kts | 240° |
| 2026-05-08 17:21 | 47.24771 | -95.46096 | 39736 ft | 481 kts | 240° |
| 2026-05-08 17:21 | 47.21050 | -95.54254 | 39752 ft | 480 kts | 240° |
| 2026-05-08 17:22 | 47.17327 | -95.62394 | 39755 ft | 480 kts | 240° |
| 2026-05-08 17:22 | 47.13596 | -95.70528 | 39759 ft | 480 kts | 240° |
| 2026-05-08 17:23 | 47.09858 | -95.78651 | 39740 ft | 480 kts | 240° |
| 2026-05-08 17:23 | 47.06113 | -95.86767 | 39756 ft | 481 kts | 240° |
| 2026-05-08 17:24 | 47.02358 | -95.94881 | 39741 ft | 481 kts | 240° |
| 2026-05-08 17:24 | 46.98594 | -96.02973 | 39752 ft | 480 kts | 239° |
| 2026-05-08 17:25 | 46.94738 | -96.10964 | 39754 ft | 481 kts | 238° |
| 2026-05-08 17:25 | 46.90842 | -96.18925 | 39753 ft | 481 kts | 238° |
| 2026-05-08 17:26 | 46.86952 | -96.26888 | 39759 ft | 481 kts | 239° |
| 2026-05-08 17:26 | 46.83095 | -96.34791 | 39768 ft | 481 kts | 239° |
| 2026-05-08 17:27 | 46.79187 | -96.42786 | 39775 ft | 481 kts | 238° |
| 2026-05-08 17:27 | 46.75293 | -96.50726 | 39772 ft | 480 kts | 238° |
| 2026-05-08 17:28 | 46.71422 | -96.58595 | 39767 ft | 481 kts | 239° |
| 2026-05-08 17:28 | 46.67523 | -96.66502 | 39767 ft | 481 kts | 238° |
| 2026-05-08 17:29 | 46.63616 | -96.74401 | 39768 ft | 481 kts | 238° |
| 2026-05-08 17:29 | 46.59700 | -96.82295 | 39769 ft | 481 kts | 238° |
| 2026-05-08 17:30 | 46.55781 | -96.90172 | 39759 ft | 481 kts | 238° |
| 2026-05-08 17:30 | 46.51852 | -96.98050 | 39782 ft | 482 kts | 238° |
| 2026-05-08 17:31 | 46.47911 | -97.05927 | 39778 ft | 482 kts | 238° |
| 2026-05-08 17:31 | 46.43965 | -97.13794 | 39781 ft | 482 kts | 238° |
| 2026-05-08 17:32 | 46.40015 | -97.21643 | 39773 ft | 482 kts | 238° |
| 2026-05-08 17:32 | 46.36059 | -97.29485 | 39774 ft | 483 kts | 238° |
| 2026-05-08 17:33 | 46.32090 | -97.37329 | 39767 ft | 483 kts | 238° |
| 2026-05-08 17:33 | 46.28117 | -97.45161 | 39774 ft | 483 kts | 238° |
| 2026-05-08 17:34 | 46.24138 | -97.52980 | 39785 ft | 483 kts | 238° |
| 2026-05-08 17:34 | 46.20177 | -97.60745 | 39785 ft | 483 kts | 238° |
| 2026-05-08 17:35 | 46.16190 | -97.68539 | 39785 ft | 483 kts | 238° |
| 2026-05-08 17:35 | 46.12195 | -97.76326 | 39785 ft | 483 kts | 238° |
| 2026-05-08 17:36 | 46.08196 | -97.84100 | 39782 ft | 483 kts | 238° |
| 2026-05-08 17:36 | 46.04195 | -97.91854 | 39787 ft | 482 kts | 238° |
| 2026-05-08 17:37 | 46.00123 | -97.99540 | 39783 ft | 486 kts | 233° |
| 2026-05-08 17:37 | 45.95503 | -98.06674 | 39786 ft | 488 kts | 231° |
| 2026-05-08 17:38 | 45.90761 | -98.13671 | 39795 ft | 489 kts | 230° |
| 2026-05-08 17:38 | 45.85994 | -98.20643 | 39789 ft | 489 kts | 230° |
| 2026-05-08 17:39 | 45.81231 | -98.27610 | 39800 ft | 489 kts | 230° |
| 2026-05-08 17:39 | 45.76464 | -98.34583 | 39801 ft | 490 kts | 230° |
| 2026-05-08 17:40 | 45.71690 | -98.41552 | 39804 ft | 490 kts | 230° |
| 2026-05-08 17:40 | 45.66912 | -98.48512 | 39809 ft | 490 kts | 231° |
| 2026-05-08 17:41 | 45.62161 | -98.55424 | 39806 ft | 490 kts | 230° |
| 2026-05-08 17:41 | 45.57371 | -98.62370 | 39793 ft | 490 kts | 231° |
| 2026-05-08 17:42 | 45.52579 | -98.69295 | 39810 ft | 491 kts | 230° |
| 2026-05-08 17:42 | 45.47769 | -98.76224 | 39814 ft | 492 kts | 230° |
| 2026-05-08 17:43 | 45.42989 | -98.83090 | 39797 ft | 492 kts | 230° |
| 2026-05-08 17:43 | 45.38174 | -98.89990 | 39815 ft | 491 kts | 230° |
| 2026-05-08 17:44 | 45.33406 | -98.96805 | 39812 ft | 492 kts | 230° |
| 2026-05-08 17:44 | 45.28608 | -99.03637 | 39818 ft | 493 kts | 230° |
| 2026-05-08 17:45 | 45.23809 | -99.10459 | 39818 ft | 493 kts | 230° |
| 2026-05-08 17:45 | 45.18953 | -99.17346 | 39817 ft | 493 kts | 230° |
| 2026-05-08 17:46 | 45.14103 | -99.24209 | 39826 ft | 492 kts | 230° |
| 2026-05-08 17:46 | 45.09250 | -99.31059 | 39824 ft | 493 kts | 231° |
| 2026-05-08 17:47 | 45.04401 | -99.37889 | 39823 ft | 494 kts | 231° |
| 2026-05-08 17:47 | 45.00364 | -99.43561 | 39824 ft | 494 kts | 231° |
| 2026-05-08 17:48 | 44.94669 | -99.51542 | 39826 ft | 493 kts | 230° |
| 2026-05-08 17:48 | 44.89788 | -99.58360 | 39821 ft | 493 kts | 231° |
| 2026-05-08 17:49 | 44.84916 | -99.65150 | 39832 ft | 495 kts | 231° |
| 2026-05-08 17:49 | 44.80015 | -99.71967 | 39824 ft | 495 kts | 231° |
| 2026-05-08 17:50 | 44.75118 | -99.78759 | 39829 ft | 495 kts | 230° |
| 2026-05-08 17:50 | 44.70264 | -99.85474 | 39829 ft | 495 kts | 230° |
| 2026-05-08 17:51 | 44.65356 | -99.92247 | 39827 ft | 495 kts | 231° |
| 2026-05-08 17:51 | 44.60434 | -99.99023 | 39842 ft | 495 kts | 231° |
| 2026-05-08 17:52 | 44.55507 | -100.05788 | 39849 ft | 496 kts | 231° |
| 2026-05-08 17:53 | 44.48132 | -100.15898 | 39861 ft | 495 kts | 230° |
| 2026-05-08 17:53 | 44.43193 | -100.22629 | 39866 ft | 496 kts | 231° |
| 2026-05-08 17:54 | 44.38239 | -100.29367 | 39868 ft | 496 kts | 231° |
| 2026-05-08 17:54 | 44.33285 | -100.36092 | 39844 ft | 497 kts | 231° |
| 2026-05-08 17:55 | 44.28324 | -100.42810 | 39844 ft | 497 kts | 231° |
| 2026-05-08 17:55 | 44.23362 | -100.49513 | 39844 ft | 496 kts | 230° |
| 2026-05-08 17:56 | 44.18401 | -100.56199 | 39846 ft | 496 kts | 230° |
| 2026-05-08 17:56 | 44.13426 | -100.62890 | 39849 ft | 498 kts | 231° |
| 2026-05-08 17:57 | 44.08476 | -100.69528 | 39851 ft | 498 kts | 231° |
| 2026-05-08 17:57 | 44.03482 | -100.76208 | 39856 ft | 498 kts | 231° |
| 2026-05-08 17:58 | 43.98494 | -100.82863 | 39855 ft | 498 kts | 231° |
| 2026-05-08 17:58 | 43.93494 | -100.89520 | 39859 ft | 498 kts | 231° |
| 2026-05-08 17:59 | 43.88485 | -100.96171 | 39846 ft | 498 kts | 230° |
| 2026-05-08 17:59 | 43.83478 | -101.02804 | 39865 ft | 498 kts | 230° |
| 2026-05-08 18:00 | 43.79312 | -101.08309 | 39865 ft | 498 kts | 230° |
| 2026-05-08 18:00 | 43.70940 | -101.19341 | 39872 ft | 498 kts | 230° |
| 2026-05-08 18:01 | 43.66765 | -101.24827 | 39861 ft | 498 kts | 230° |
| 2026-05-08 18:01 | 43.61737 | -101.31418 | 39841 ft | 498 kts | 230° |
| 2026-05-08 18:02 | 43.56692 | -101.38016 | 39880 ft | 500 kts | 230° |
| 2026-05-08 18:02 | 43.51643 | -101.44603 | 39881 ft | 500 kts | 230° |
| 2026-05-08 18:03 | 43.46587 | -101.51180 | 39892 ft | 500 kts | 230° |
| 2026-05-08 18:03 | 43.41527 | -101.57748 | 39891 ft | 500 kts | 230° |
| 2026-05-08 18:04 | 43.36470 | -101.64297 | 39895 ft | 500 kts | 230° |
| 2026-05-08 18:04 | 43.31406 | -101.70838 | 39891 ft | 500 kts | 230° |
| 2026-05-08 18:05 | 43.26336 | -101.77374 | 39909 ft | 500 kts | 230° |
| 2026-05-08 18:05 | 43.21255 | -101.83907 | 39897 ft | 500 kts | 230° |
| 2026-05-08 18:06 | 43.16201 | -101.90390 | 39915 ft | 500 kts | 230° |
| 2026-05-08 18:06 | 43.11115 | -101.96897 | 39922 ft | 500 kts | 230° |
| 2026-05-08 18:07 | 43.06030 | -102.03389 | 39915 ft | 500 kts | 230° |
| 2026-05-08 18:07 | 43.00929 | -102.09885 | 39920 ft | 501 kts | 230° |
| 2026-05-08 18:08 | 42.96083 | -102.16045 | 39928 ft | 501 kts | 230° |
| 2026-05-08 18:08 | 42.90985 | -102.22520 | 39944 ft | 500 kts | 230° |
| 2026-05-08 18:09 | 42.85882 | -102.28980 | 39919 ft | 500 kts | 230° |
| 2026-05-08 18:09 | 42.84193 | -102.31115 | 39920 ft | 501 kts | 230° |
| 2026-05-08 18:11 | 42.80126 | -102.36243 | 39939 ft | 501 kts | 230° |
| 2026-05-08 18:12 | 42.75013 | -102.42677 | 39903 ft | 501 kts | 230° |
| 2026-05-08 18:12 | 42.69892 | -102.49105 | 39935 ft | 501 kts | 230° |
| 2026-05-08 18:13 | 42.64800 | -102.55482 | 39929 ft | 501 kts | 230° |
| 2026-05-08 18:13 | 42.59635 | -102.61936 | 39927 ft | 501 kts | 230° |
| 2026-05-08 18:14 | 42.54501 | -102.68336 | 39934 ft | 501 kts | 230° |
| 2026-05-08 18:14 | 42.49397 | -102.74682 | 39933 ft | 501 kts | 230° |
| 2026-05-08 18:15 | 42.44222 | -102.81103 | 39938 ft | 501 kts | 230° |
| 2026-05-08 18:15 | 42.39082 | -102.87465 | 39942 ft | 501 kts | 230° |
| 2026-05-08 18:16 | 42.33974 | -102.93773 | 39945 ft | 500 kts | 230° |
| 2026-05-08 18:16 | 42.28802 | -103.00147 | 39945 ft | 500 kts | 230° |
| 2026-05-08 18:17 | 42.23686 | -103.06435 | 39942 ft | 500 kts | 229° |
| 2026-05-08 18:17 | 42.18536 | -103.12752 | 39947 ft | 500 kts | 229° |
| 2026-05-08 18:18 | 42.13382 | -103.19059 | 39946 ft | 500 kts | 229° |
| 2026-05-08 18:18 | 42.08229 | -103.25350 | 39954 ft | 500 kts | 229° |
| 2026-05-08 18:19 | 42.03067 | -103.31637 | 39973 ft | 500 kts | 229° |
| 2026-05-08 18:19 | 41.97902 | -103.37914 | 39998 ft | 500 kts | 229° |
| 2026-05-08 18:20 | 41.92736 | -103.44177 | 40014 ft | 500 kts | 229° |
| 2026-05-08 18:20 | 41.87555 | -103.50415 | 39998 ft | 501 kts | 228° |
| 2026-05-08 18:21 | 41.82163 | -103.56388 | 40028 ft | 504 kts | 226° |
| 2026-05-08 18:21 | 41.76700 | -103.62261 | 40020 ft | 503 kts | 225° |
| 2026-05-08 18:22 | 41.71255 | -103.68160 | 40006 ft | 503 kts | 226° |
| 2026-05-08 18:22 | 41.65829 | -103.74082 | 39995 ft | 503 kts | 226° |
| 2026-05-08 18:23 | 41.60410 | -103.79999 | 40004 ft | 503 kts | 226° |
| 2026-05-08 18:23 | 41.54991 | -103.85904 | 39957 ft | 503 kts | 226° |
| 2026-05-08 18:24 | 41.49567 | -103.91799 | 39986 ft | 502 kts | 226° |
| 2026-05-08 18:24 | 41.44152 | -103.97669 | 40014 ft | 502 kts | 226° |
| 2026-05-08 18:25 | 41.39015 | -104.03225 | 39995 ft | 502 kts | 226° |
| 2026-05-08 18:25 | 41.33625 | -104.09043 | 39984 ft | 502 kts | 226° |
| 2026-05-08 18:26 | 41.28196 | -104.14891 | 39992 ft | 502 kts | 226° |
| 2026-05-08 18:26 | 41.22731 | -104.20763 | 40006 ft | 502 kts | 225° |
| 2026-05-08 18:27 | 41.18214 | -104.25606 | 40011 ft | 501 kts | 225° |
| 2026-05-08 18:27 | 41.11916 | -104.32344 | 40028 ft | 500 kts | 225° |
| 2026-05-08 18:28 | 41.06492 | -104.38135 | 40017 ft | 500 kts | 225° |
| 2026-05-08 18:28 | 41.01068 | -104.43914 | 40042 ft | 500 kts | 225° |
| 2026-05-08 18:29 | 40.95644 | -104.49680 | 40044 ft | 500 kts | 225° |
| 2026-05-08 18:29 | 40.90215 | -104.55438 | 40024 ft | 500 kts | 225° |
| 2026-05-08 18:30 | 40.84786 | -104.61182 | 40015 ft | 500 kts | 225° |
| 2026-05-08 18:30 | 40.79358 | -104.66914 | 39992 ft | 499 kts | 225° |
| 2026-05-08 18:31 | 40.73930 | -104.72634 | 40012 ft | 499 kts | 225° |
| 2026-05-08 18:31 | 40.68505 | -104.78339 | 40025 ft | 499 kts | 225° |
| 2026-05-08 18:32 | 40.63074 | -104.84038 | 40038 ft | 499 kts | 225° |
| 2026-05-08 18:32 | 40.57647 | -104.89720 | 40032 ft | 499 kts | 225° |
| 2026-05-08 18:33 | 40.52214 | -104.95396 | 40016 ft | 498 kts | 224° |
| 2026-05-08 18:33 | 40.46794 | -105.01045 | 40086 ft | 497 kts | 224° |
| 2026-05-08 18:34 | 40.41382 | -105.06676 | 40089 ft | 497 kts | 224° |
| 2026-05-08 18:34 | 40.35963 | -105.12301 | 40075 ft | 497 kts | 224° |
| 2026-05-08 18:35 | 40.30539 | -105.17921 | 40077 ft | 497 kts | 224° |
| 2026-05-08 18:35 | 40.25116 | -105.23528 | 40094 ft | 497 kts | 224° |
| 2026-05-08 18:36 | 40.19700 | -105.29124 | 40060 ft | 496 kts | 224° |
| 2026-05-08 18:36 | 40.14274 | -105.34709 | 40070 ft | 496 kts | 224° |
| 2026-05-08 18:37 | 40.08841 | -105.40284 | 40038 ft | 496 kts | 224° |
| 2026-05-08 18:37 | 40.03410 | -105.45841 | 40050 ft | 496 kts | 224° |
| 2026-05-08 18:38 | 39.97986 | -105.51390 | 40025 ft | 496 kts | 224° |
| 2026-05-08 18:38 | 39.92562 | -105.56934 | 39997 ft | 496 kts | 224° |
| 2026-05-08 18:39 | 39.87134 | -105.62466 | 39964 ft | 495 kts | 224° |
| 2026-05-08 18:39 | 39.81699 | -105.67991 | 39961 ft | 495 kts | 223° |
| 2026-05-08 18:40 | 39.76334 | -105.73437 | 39966 ft | 493 kts | 223° |
| 2026-05-08 18:40 | 39.70882 | -105.78956 | 39952 ft | 494 kts | 223° |
| 2026-05-08 18:41 | 39.65456 | -105.84436 | 39943 ft | 493 kts | 223° |
| 2026-05-08 18:41 | 39.60082 | -105.89862 | 39961 ft | 493 kts | 223° |
| 2026-05-08 18:42 | 39.54659 | -105.95317 | 39959 ft | 493 kts | 223° |
| 2026-05-08 18:42 | 39.49242 | -106.00755 | 39944 ft | 493 kts | 223° |
| 2026-05-08 18:43 | 39.43839 | -106.06204 | 39946 ft | 492 kts | 223° |
| 2026-05-08 18:43 | 39.38445 | -106.11651 | 39950 ft | 492 kts | 223° |
| 2026-05-08 18:44 | 39.35753 | -106.14366 | 40146 ft | 491 kts | 223° |
| 2026-05-08 18:44 | 39.33062 | -106.17074 | 40179 ft | 491 kts | 223° |
| 2026-05-08 18:44 | 39.27665 | -106.22493 | 40276 ft | 491 kts | 223° |
| 2026-05-08 18:45 | 39.22272 | -106.27898 | 40277 ft | 491 kts | 223° |
| 2026-05-08 18:45 | 39.16880 | -106.33290 | 40274 ft | 491 kts | 223° |
| 2026-05-08 18:46 | 39.11485 | -106.38675 | 40239 ft | 491 kts | 223° |
| 2026-05-08 18:46 | 39.07005 | -106.43137 | 40158 ft | 490 kts | 223° |
| 2026-05-08 18:47 | 39.01611 | -106.48508 | 40085 ft | 490 kts | 223° |
| 2026-05-08 18:47 | 38.96220 | -106.53855 | 40008 ft | 489 kts | 223° |
| 2026-05-08 18:48 | 38.90831 | -106.59191 | 39949 ft | 489 kts | 223° |
| 2026-05-08 18:48 | 38.85429 | -106.64530 | 39952 ft | 490 kts | 223° |
| 2026-05-08 18:49 | 38.80033 | -106.69855 | 39942 ft | 489 kts | 223° |
| 2026-05-08 18:49 | 38.74670 | -106.75137 | 39945 ft | 489 kts | 223° |
| 2026-05-08 18:50 | 38.69272 | -106.80442 | 39949 ft | 489 kts | 223° |
| 2026-05-08 18:50 | 38.63865 | -106.85746 | 39948 ft | 490 kts | 223° |
| 2026-05-08 18:51 | 38.61162 | -106.88395 | 40163 ft | 490 kts | 223° |
| 2026-05-08 18:51 | 38.58451 | -106.91047 | 40168 ft | 490 kts | 223° |
| 2026-05-08 18:51 | 38.53040 | -106.96335 | 40164 ft | 490 kts | 223° |
| 2026-05-08 18:52 | 38.47627 | -107.01611 | 40165 ft | 489 kts | 223° |
| 2026-05-08 18:52 | 38.41773 | -107.06155 | 40103 ft | 496 kts | 213° |
| 2026-05-08 18:53 | 38.35607 | -107.10160 | 40071 ft | 497 kts | 211° |
| 2026-05-08 18:53 | 38.29401 | -107.14064 | 40023 ft | 498 kts | 211° |
| 2026-05-08 18:54 | 38.23194 | -107.17970 | 39973 ft | 498 kts | 211° |
| 2026-05-08 18:54 | 38.16992 | -107.21888 | 39992 ft | 498 kts | 211° |
| 2026-05-08 18:55 | 38.07694 | -107.27762 | 40012 ft | 498 kts | 211° |
| 2026-05-08 18:56 | 38.01539 | -107.31646 | 40003 ft | 497 kts | 211° |